Select time range

Select time range

Data


Date and Time (y/m/d h:m:s) Temprature (°C) RH (%) Water Content (m³/m³) Wind Speed (m/s) Gust Speed (m/s) Solar Radiation (W/m²) Rain (mm)
23-03-10 14:37:39 26.304 40.5 0.1492 0.5 4.03 531.9 0
23-03-10 14:32:39 27.579 39.6 0.1506 1.01 3.02 1021.9 0
23-03-10 14:27:39 26.867 40.4 0.1499 1.01 3.52 1033.1 0
23-03-10 14:22:39 26.744 41.5 0.1485 1.01 4.53 830.6 0
23-03-10 14:17:39 25.914 43.6 0.1499 0.5 3.02 946.9 0
23-03-10 14:12:39 25.258 43.8 0.1506 0 2.52 621.9 0
23-03-10 14:07:39 24.774 43.1 0.1506 0 1.51 474.4 0
23-03-10 14:02:39 24.339 44.1 0.1506 0.5 3.52 403.1 0
23-03-10 13:57:39 23.833 45.5 0.1499 0.5 3.02 501.9 0
23-03-10 13:52:39 23.833 45.7 0.1499 0.5 2.52 274.4 0
23-03-10 13:47:39 23.857 45.6 0.1499 0.5 3.52 254.4 0
23-03-10 13:42:39 24.122 44.5 0.1499 0.5 2.01 271.9 0
23-03-10 13:37:39 24.702 44.2 0.1499 0.5 3.02 356.9 0
23-03-10 13:32:39 24.992 45.2 0.1506 0 2.01 615.6 0
23-03-10 13:27:39 23.713 47.7 0.1499 0 2.01 353.1 0
23-03-10 13:22:39 23.472 48.4 0.1492 0.5 3.02 333.1 0
23-03-10 13:17:39 23.665 48.5 0.1499 0 2.01 319.4 0
23-03-10 13:12:39 23.4 48.7 0.1499 0.5 2.52 324.4 0
23-03-10 13:07:39 23.833 50.5 0.1506 0 2.01 1046.9 0
23-03-10 13:02:39 22.681 50.8 0.1499 0 1.51 213.1 0
23-03-10 12:57:39 22.729 51.1 0.1499 1.01 4.03 175.6 0
23-03-10 12:52:39 22.369 50.9 0.1499 1.01 3.52 156.9 0
23-03-10 12:47:39 23.424 48.6 0.1499 1.01 4.03 165.6 0
23-03-10 12:42:39 25.283 46.3 0.1506 1.01 3.52 851.9 0
23-03-10 12:37:39 24.412 49.4 0.1506 1.01 4.03 1229.4 0
23-03-10 12:32:39 22.848 50 0.1492 0.5 2.52 329.4 0
23-03-10 12:27:39 22.92 49.4 0.1492 0 2.01 255.6 0
23-03-10 12:22:39 25.04 46.3 0.1492 0 1.51 236.9 0
23-03-10 12:17:39 25.186 47.1 0.1506 0.5 4.03 1099.4 0
23-03-10 12:12:39 24.122 48.6 0.1506 0 2.01 1105.6 0
23-03-10 12:07:39 25.089 49.6 0.1506 0.5 2.01 889.4 0
23-03-10 12:02:39 23.569 54.1 0.1506 0 2.52 1276.9 0
23-03-10 11:57:39 22.25 54.9 0.1492 0 1.51 416.9 0
23-03-10 11:52:39 21.557 55.9 0.1492 0.5 2.01 331.9 0
23-03-10 11:47:39 21.223 55.7 0.1492 0 1.51 279.4 0
23-03-10 11:42:39 21.27 55.2 0.1499 1.01 3.52 280.6 0
23-03-10 11:37:39 21.963 54.8 0.1492 0 2.01 338.1 0
23-03-10 11:32:39 22.226 55.3 0.1492 0 2.52 370.6 0
23-03-10 11:27:39 21.652 54.6 0.1492 0.5 2.52 370.6 0
23-03-10 11:22:39 22.226 54.1 0.1492 0 1.51 398.1 0
23-03-10 11:17:39 22.154 54.5 0.1499 0 1.01 494.4 0
23-03-10 11:12:39 21.963 55.1 0.1492 0 1.51 313.1 0
23-03-10 11:07:39 21.987 55.7 0.1492 0 2.01 340.6 0
23-03-10 11:02:39 21.366 57.6 0.1492 0 1.01 329.4 0
23-03-10 10:57:39 21.366 55.9 0.1485 0 1.01 289.4 0
23-03-10 10:52:39 21.581 55.2 0.1492 0 0.5 268.1 0
23-03-10 10:47:39 22.298 54.8 0.1492 0 1.01 301.9 0
23-03-10 10:42:39 22.441 54.1 0.1492 0 1.51 689.4 0
23-03-10 10:37:39 21.843 55.7 0.1492 0 1.01 441.9 0
23-03-10 10:32:39 21.915 56.5 0.1499 0 1.01 381.9 0
23-03-10 10:27:39 21.079 57.8 0.1499 0 1.01 356.9 0
23-03-10 10:22:39 20.531 58.7 0.1492 0 0 309.4 0
23-03-10 10:17:39 20.555 58.4 0.1492 0 0 225.6 0
23-03-10 10:12:39 20.365 58.6 0.1492 0 0.5 198.1 0
23-03-10 10:07:39 20.365 59.2 0.1492 0 1.01 245.6 0
23-03-10 10:02:39 20.055 59.4 0.1492 0 1.01 240.6 0
23-03-10 09:57:39 19.865 58.9 0.1492 0 1.51 213.1 0
23-03-10 09:52:39 20.222 58.5 0.1492 0 0.5 236.9 0
23-03-10 09:47:39 20.126 59 0.1499 0 1.01 214.4 0
23-03-10 09:42:39 20.293 58.7 0.1499 0 0.5 239.4 0
23-03-10 09:37:39 20.198 58.8 0.1499 0 0.5 288.1 0
23-03-10 09:32:39 20.46 58.1 0.1492 0 1.51 330.6 0
23-03-10 09:27:39 20.222 58 0.1499 0 1.51 318.1 0
23-03-10 09:22:39 20.412 58.5 0.1492 0 0.5 290.6 0
23-03-10 09:17:39 20.388 59.1 0.1492 0 1.01 324.4 0
23-03-10 09:12:39 20.412 59 0.1499 0 1.51 394.4 0
23-03-10 09:07:39 20.317 60.3 0.1499 0 0.5 351.9 0
23-03-10 09:02:39 19.888 60.5 0.1499 0 1.51 321.9 0
23-03-10 08:57:39 19.77 61.2 0.1492 0 1.51 303.1 0
23-03-10 08:52:39 19.318 61.6 0.1499 0 1.01 291.9 0
23-03-10 08:47:39 19.365 61.1 0.1499 0 2.01 264.4 0
23-03-10 08:42:39 19.127 60.6 0.1499 0 1.51 239.4 0
23-03-10 08:37:39 18.937 60.3 0.1499 0.5 2.52 246.9 0
23-03-10 08:32:39 19.056 60.3 0.1499 0.5 2.52 244.4 0
23-03-10 08:27:39 19.199 61 0.1499 0 2.01 246.9 0
23-03-10 08:22:39 19.246 62.2 0.1499 0 1.51 233.1 0
23-03-10 08:17:39 18.842 63.3 0.1499 0 2.01 238.1 0
23-03-10 08:12:39 18.438 64.9 0.1499 0 1.51 221.9 0
23-03-10 08:07:39 18.081 65.7 0.1499 0 1.51 180.6 0
23-03-10 08:02:39 17.938 66.3 0.1499 0 2.01 139.4 0
23-03-10 07:57:39 17.819 67.1 0.1499 0.5 2.52 131.9 0
23-03-10 07:52:39 17.677 67.9 0.1499 0 1.51 146.9 0
23-03-10 07:47:39 17.605 68.7 0.1499 0 1.51 138.1 0
23-03-10 07:42:39 17.391 69.7 0.1499 0 1.51 128.1 0
23-03-10 07:37:39 17.153 71.8 0.1499 0 0.5 123.1 0
23-03-10 07:32:39 16.773 72.9 0.1499 0 2.01 105.6 0
23-03-10 07:27:39 16.439 74.9 0.1499 0 1.01 94.4 0
23-03-10 07:22:39 16.106 75.8 0.1499 0 1.51 74.4 0
23-03-10 07:17:39 15.963 76.1 0.1499 0 1.51 69.4 0
23-03-10 07:12:39 15.819 76.7 0.1499 0 2.01 53.1 0
23-03-10 07:07:39 15.748 77.1 0.1499 0 1.51 46.9 0
23-03-10 07:02:39 15.629 77.3 0.1499 0 0.5 43.1 0
23-03-10 06:57:39 15.509 77.4 0.1499 0 0.5 33.1 0
23-03-10 06:52:39 15.342 77.5 0.1499 0 0 25.6 0
23-03-10 06:47:39 15.175 77.2 0.1499 0 1.01 16.9 0
23-03-10 06:42:39 15.27 76.6 0.1499 0 0.5 8.1 0
23-03-10 06:37:39 15.39 76.4 0.1499 0 0 3.1 0
23-03-10 06:32:39 15.414 76.4 0.1499 0 0 0.6 0
23-03-10 06:27:39 15.414 76.1 0.1499 0 0 0.6 0
23-03-10 06:22:39 15.485 75.8 0.1499 0 0 0.6 0
23-03-10 06:17:39 15.605 75.4 0.1499 0 0.5 0.6 0
23-03-10 06:12:39 15.605 75.3 0.1499 0 0 0.6 0
23-03-10 06:07:39 15.652 75 0.1499 0 0 0.6 0
23-03-10 06:02:39 15.819 74.8 0.1499 0 1.01 0.6 0
23-03-10 05:57:39 15.796 75.3 0.1499 0 1.01 0.6 0
23-03-10 05:52:39 15.676 75.7 0.1499 0 0.5 0.6 0
23-03-10 05:47:39 15.652 75.8 0.1499 0 1.01 0.6 0
23-03-10 05:42:39 15.629 75.8 0.1499 0 1.01 0.6 0
23-03-10 05:37:39 15.605 76.3 0.1499 0 0.5 0.6 0
23-03-10 05:32:39 15.605 76.9 0.1499 0 0.5 0.6 0
23-03-10 05:27:39 15.605 77.4 0.1499 0 1.01 0.6 0
23-03-10 05:22:39 15.629 77.7 0.1499 0 1.01 0.6 0
23-03-10 05:17:39 15.438 78.8 0.1499 0 0 0.6 0
23-03-10 05:12:39 15.199 79.3 0.1499 0 0 0.6 0
23-03-10 05:07:39 15.031 79.4 0.1499 0 0 0.6 0
23-03-10 05:02:39 15.079 78.9 0.1499 0 0 0.6 0
23-03-10 04:57:39 15.223 78.2 0.1499 0 0 0.6 0
23-03-10 04:52:39 15.39 77.5 0.1499 0 0 0.6 0
23-03-10 04:47:39 15.557 76.9 0.1499 0 0 0.6 0
23-03-10 04:42:39 15.629 76.5 0.1499 0 0 0.6 0
23-03-10 04:37:39 15.676 76.3 0.1499 0 0 0.6 0
23-03-10 04:32:39 15.748 75.9 0.1499 0 0 0.6 0
23-03-10 04:27:39 15.796 75.7 0.1499 0 0 0.6 0
23-03-10 04:22:39 15.819 75.5 0.1499 0 0 0.6 0
23-03-10 04:17:39 15.891 75.6 0.1499 0 0 0.6 0
23-03-10 04:12:39 15.629 76.8 0.1499 0 0.5 0.6 0
23-03-10 04:07:39 15.031 77.6 0.1499 0 0 0.6 0
23-03-10 04:02:39 14.864 78.2 0.1499 0 0 0.6 0
23-03-10 03:57:39 14.649 78.5 0.1499 0 0 0.6 0
23-03-10 03:52:39 14.577 78 0.1499 0 0 0.6 0
23-03-10 03:47:39 14.721 77 0.1499 0 0 0.6 0
23-03-10 03:42:39 14.96 76.5 0.1499 0 0 0.6 0
23-03-10 03:37:39 15.079 76.4 0.1499 0 0 0.6 0
23-03-10 03:32:39 15.127 76.6 0.1499 0 0 0.6 0
23-03-10 03:27:39 15.199 76.5 0.1506 0 0 0.6 0
23-03-10 03:22:39 15.127 75.9 0.1499 0 0 0.6 0
23-03-10 03:17:39 15.199 75.5 0.1506 0 0 0.6 0
23-03-10 03:12:39 15.366 75 0.1506 0 0 0.6 0
23-03-10 03:07:39 15.629 74.1 0.1506 0 0 0.6 0
23-03-10 03:02:39 15.772 73.9 0.1499 0 0 0.6 0
23-03-10 02:57:39 15.891 73.8 0.1499 0 0 0.6 0
23-03-10 02:52:39 15.891 74.2 0.1506 0 0 0.6 0
23-03-10 02:47:39 15.867 74.5 0.1506 0 0 0.6 0
23-03-10 02:42:39 15.843 74.5 0.1506 0 0 0.6 0
23-03-10 02:37:39 15.891 74.6 0.1506 0 0 0.6 0
23-03-10 02:32:39 15.867 75 0.1506 0 1.01 0.6 0
23-03-10 02:27:39 15.819 75.5 0.1499 0 2.01 0.6 0
23-03-10 02:22:39 15.796 76.1 0.1506 0 2.52 0.6 0
23-03-10 02:17:39 15.629 77.1 0.1506 0 1.01 0.6 0
23-03-10 02:12:39 15.676 77 0.1506 0 1.01 0.6 0
23-03-10 02:07:39 15.724 77.3 0.1506 0 2.01 0.6 0
23-03-10 02:02:39 15.724 77.4 0.1506 0 1.51 0.6 0
23-03-10 01:57:39 15.748 77.6 0.1506 0 1.51 0.6 0
23-03-10 01:52:39 15.652 78.1 0.1499 0 0.5 0.6 0
23-03-10 01:47:39 15.581 78.4 0.1499 0 0.5 0.6 0
23-03-10 01:42:39 15.485 78.5 0.1499 0 0 0.6 0
23-03-10 01:37:39 15.485 78.3 0.1499 0 0 0.6 0
23-03-10 01:32:39 15.485 78.3 0.1506 0 0.5 0.6 0
23-03-10 01:27:39 15.557 78.1 0.1499 0 0 0.6 0
23-03-10 01:22:39 15.652 78 0.1499 0 1.01 0.6 0
23-03-10 01:17:39 15.676 78.1 0.1499 0 1.01 0.6 0
23-03-10 01:12:39 15.605 78.6 0.1499 0 1.51 0.6 0
23-03-10 01:07:39 15.509 79.1 0.1499 0 1.01 0.6 0
23-03-10 01:02:39 15.414 79.5 0.1499 0 1.51 0.6 0
23-03-10 00:57:39 15.294 79.7 0.1499 0 2.01 0.6 0
23-03-10 00:52:39 15.247 79.7 0.1499 0 1.01 0.6 0
23-03-10 00:47:39 15.27 79.7 0.1499 0 1.51 0.6 0
23-03-10 00:42:39 15.223 79.4 0.1499 0 0.5 0.6 0
23-03-10 00:37:39 15.294 79.2 0.1499 0 0.5 0.6 0
23-03-10 00:32:39 15.342 79 0.1499 0 1.01 0.6 0
23-03-10 00:27:39 15.342 79 0.1499 0 0 0.6 0
23-03-10 00:22:39 15.366 79 0.1499 0 1.01 0.6 0
23-03-10 00:17:39 15.366 78.3 0.1499 0 1.01 0.6 0
23-03-10 00:12:39 15.438 78 0.1499 0 1.51 0.6 0
23-03-10 00:07:39 15.509 77.6 0.1499 0 2.01 0.6 0
23-03-10 00:02:39 15.461 77.1 0.1499 0 2.01 0.6 0
23-03-09 23:57:39 15.485 76.6 0.1499 0 1.51 0.6 0
23-03-09 23:52:39 15.557 75.4 0.1499 0 1.51 0.6 0
23-03-09 23:47:39 15.724 74.9 0.1499 0 2.52 0.6 0
23-03-09 23:42:39 15.796 74.1 0.1499 0 1.01 0.6 0
23-03-09 23:37:39 15.891 73.7 0.1499 0 1.01 0.6 0
23-03-09 23:32:39 15.986 73.3 0.1499 0 1.01 0.6 0
23-03-09 23:27:39 15.748 70.3 0.1499 0 0 0.6 0
23-03-09 23:22:39 15.939 68 0.1499 0 0 0.6 0
23-03-09 23:17:39 16.511 66.1 0.1499 0 0 0.6 0
23-03-09 23:12:39 16.868 64.9 0.1499 0 0.5 0.6 0
23-03-09 23:07:39 17.034 64.4 0.1499 0 2.01 0.6 0
23-03-09 23:02:39 17.011 64.8 0.1506 0 1.51 0.6 0
23-03-09 22:57:39 17.106 65.1 0.1499 0 1.51 0.6 0
23-03-09 22:52:39 16.987 65.9 0.1499 0 0.5 0.6 0
23-03-09 22:47:39 16.773 67.2 0.1499 0 0.5 0.6 0
23-03-09 22:42:39 16.63 68.2 0.1499 0 0 0.6 0
23-03-09 22:37:39 16.915 68.4 0.1499 0 0 0.6 0
23-03-09 22:32:39 17.034 66.8 0.1499 0 0 0.6 0
23-03-09 22:27:39 17.368 65.7 0.1499 0 0 0.6 0
23-03-09 22:22:39 17.534 65.7 0.1499 0 1.01 0.6 0
23-03-09 22:17:39 17.486 66.6 0.1499 0.5 2.52 0.6 0
23-03-09 22:12:39 17.415 67.2 0.1499 0.5 3.52 0.6 0
23-03-09 22:07:39 17.201 68.5 0.1499 0.5 3.02 0.6 0
23-03-09 22:02:39 17.177 69.2 0.1499 0.5 2.52 0.6 0
23-03-09 21:57:39 16.82 72.1 0.1499 0 0.5 0.6 0
23-03-09 21:52:39 16.654 73.1 0.1499 0 2.01 0.6 0
23-03-09 21:47:39 16.487 73.5 0.1499 0 2.52 0.6 0.2
23-03-09 21:42:39 16.511 73.1 0.1499 0 1.51 0.6 0
23-03-09 21:37:39 16.749 71.1 0.1499 0 1.51 0.6 0
23-03-09 21:32:39 16.915 70 0.1499 1.01 3.02 0.6 0
23-03-09 21:27:39 17.605 66.8 0.1499 0.5 2.01 0.6 0
23-03-09 21:22:39 17.605 66.6 0.1499 0 2.01 0.6 0
23-03-09 21:17:39 17.629 66.4 0.1499 0.5 2.52 0.6 0
23-03-09 21:12:39 17.629 66.4 0.1506 0.5 3.52 0.6 0
23-03-09 21:07:39 17.677 66.1 0.1499 1.01 3.52 0.6 0
23-03-09 21:02:39 17.677 66 0.1506 1.01 4.03 0.6 0
23-03-09 20:57:39 17.891 64.9 0.1499 0.5 3.02 0.6 0
23-03-09 20:52:39 18.105 63.9 0.1499 0.5 3.02 0.6 0
23-03-09 20:47:39 18.081 63.8 0.1506 0.5 3.52 0.6 0
23-03-09 20:42:39 18.152 63.2 0.1499 0.5 3.02 0.6 0
23-03-09 20:37:39 18.2 63.7 0.1499 0.5 2.52 0.6 0
23-03-09 20:32:39 18.033 64.6 0.1499 0 1.51 0.6 0
23-03-09 20:27:39 17.867 65.1 0.1499 0 1.01 0.6 0
23-03-09 20:22:39 17.915 65.1 0.1506 0 2.01 0.6 0
23-03-09 20:17:39 17.915 65.1 0.1499 0 2.01 0.6 0
23-03-09 20:12:39 17.962 65.2 0.1499 0.5 2.01 0.6 0
23-03-09 20:07:39 17.962 65.7 0.1499 0.5 2.52 0.6 0
23-03-09 20:02:39 17.819 66.5 0.1499 0 2.52 0.6 0
23-03-09 19:57:39 17.891 66.5 0.1499 0.5 2.01 0.6 0
23-03-09 19:52:39 17.843 66.8 0.1499 0.5 2.01 0.6 0
23-03-09 19:47:39 17.819 66.9 0.1499 0 2.01 0.6 0
23-03-09 19:42:39 17.748 67.1 0.1499 0 2.52 0.6 0
23-03-09 19:37:39 17.677 66.9 0.1499 0 2.01 0.6 0
23-03-09 19:32:39 17.51 67.5 0.1499 0.5 2.01 0.6 0
23-03-09 19:27:39 17.13 68.1 0.1499 0 0.5 0.6 0
23-03-09 19:22:39 17.368 65.4 0.1499 0 0 0.6 0
23-03-09 19:17:39 18.129 61.8 0.1499 0 0 0.6 0
23-03-09 19:12:39 18.343 59.6 0.1499 0 1.01 0.6 0
23-03-09 19:07:39 18.438 59.1 0.1499 0 2.01 0.6 0
23-03-09 19:02:39 18.509 58 0.1499 0 0.5 0.6 0
23-03-09 18:57:39 18.675 57 0.1499 0.5 3.02 0.6 0
23-03-09 18:52:39 18.771 57 0.1499 0.5 2.01 0.6 0
23-03-09 18:47:39 18.604 57.7 0.1499 0.5 3.02 0.6 0
23-03-09 18:42:39 18.295 59.4 0.1492 0.5 2.52 0.6 0
23-03-09 18:37:39 18.271 60.1 0.1499 1.01 3.52 0.6 0
23-03-09 18:32:39 18.414 59.4 0.1492 0 3.02 0.6 0
23-03-09 18:27:39 18.557 58.7 0.1499 1.01 3.52 0.6 0
23-03-09 18:22:39 18.58 59.3 0.1492 1.51 4.03 1.9 0
23-03-09 18:17:39 18.533 59.9 0.1492 2.01 5.54 4.4 0
23-03-09 18:12:39 18.438 60.7 0.1492 2.52 7.05 9.4 0
23-03-09 18:07:39 18.509 59.3 0.1485 3.02 8.05 13.1 0
23-03-09 18:02:39 19.032 57.6 0.1506 3.02 6.04 18.1 0
23-03-09 17:57:39 19.08 57.7 0.147 2.01 6.54 24.4 0
23-03-09 17:52:39 18.866 57.5 0.1492 2.52 6.54 36.9 0
23-03-09 17:47:39 19.508 54.5 0.1477 2.01 6.04 44.4 0
23-03-09 17:42:39 20.484 51.9 0.1499 2.01 5.54 53.1 0
23-03-09 17:37:39 20.293 53.1 0.1492 1.01 4.53 41.9 0
23-03-09 17:32:39 20.079 54.1 0.1499 1.51 3.52 36.9 0
23-03-09 17:27:39 19.96 53.8 0.1492 1.01 4.03 31.9 0
23-03-09 17:22:39 19.888 53.5 0.1485 1.01 3.52 36.9 0
23-03-09 17:17:39 20.007 51.9 0.1485 1.51 4.03 35.6 0
23-03-09 17:12:39 20.031 52 0.1492 1.01 4.53 25.6 0
23-03-09 17:07:39 20.293 50.8 0.1499 2.52 6.54 21.9 0
23-03-09 17:02:39 21.843 46 0.1506 2.52 5.54 26.9 0
23-03-09 16:57:39 22.657 43.9 0.1506 2.01 5.03 34.4 0
23-03-09 16:52:39 23.641 41.7 0.1499 1.01 3.52 45.6 0
23-03-09 16:47:39 24.315 37.7 0.1499 2.01 5.03 60.6 0
23-03-09 16:42:39 25.258 33.6 0.1499 0.5 2.01 73.1 0
23-03-09 16:37:39 25.21 33.2 0.1499 0.5 2.52 75.6 0
23-03-09 16:32:39 25.331 31.6 0.1499 0.5 3.02 84.4 0
23-03-09 16:27:39 25.404 32 0.1499 1.01 4.03 93.1 0
23-03-09 16:22:39 25.38 32.7 0.1506 1.01 3.02 99.4 0
23-03-09 16:17:39 25.793 33 0.1499 0 1.51 103.1 0
23-03-09 16:12:39 25.695 33.8 0.1506 0.5 3.02 113.1 0
23-03-09 16:07:39 25.939 33.4 0.1506 0.5 4.53 133.1 0
23-03-09 16:02:39 26.475 32.7 0.1499 1.01 4.03 170.6 0
23-03-09 15:57:39 27.431 32.9 0.1499 0.5 3.02 531.9 0
23-03-09 15:52:39 27.136 33.1 0.1492 1.01 3.52 245.6 0
23-03-09 15:47:39 27.431 32.1 0.1492 0.5 2.01 285.6 0
23-03-09 15:42:39 28.221 31.4 0.1499 1.01 3.52 374.4 0
23-03-09 15:37:39 28.221 31.6 0.1514 1.01 4.03 793.1 0
23-03-09 15:32:39 28.891 30.9 0.1514 0.5 4.03 739.4 0
23-03-09 15:27:39 28.444 31.8 0.1506 1.01 4.03 776.9 0
23-03-09 15:22:39 29.215 30.3 0.1514 0.5 3.52 725.6 0
23-03-09 15:17:39 28.27 32.8 0.1506 0.5 3.02 848.1 0
23-03-09 15:12:39 27.235 32.5 0.1492 1.01 4.03 308.1 0
23-03-09 15:07:39 28.468 31.7 0.1499 1.01 4.53 353.1 0
23-03-09 15:02:39 28.99 30.8 0.1506 0 1.51 933.1 0
23-03-09 14:57:39 28.916 31 0.1492 1.01 4.03 931.9 0
23-03-09 14:52:39 28.493 31.7 0.1492 1.01 3.02 788.1 0
23-03-09 14:47:39 29.14 31 0.1514 1.51 4.03 921.9 0
23-03-09 14:42:39 28.965 31.9 0.1506 1.01 3.02 904.4 0
23-03-09 14:37:39 28.147 31.5 0.1492 0.5 3.02 910.6 0
23-03-09 14:32:39 28.518 32.9 0.1499 0.5 3.02 993.1 0
23-03-09 14:27:39 27.112 34 0.1492 1.51 3.52 879.4 0
23-03-09 14:22:39 28.617 32 0.1492 1.51 4.53 388.1 0
23-03-09 14:17:39 28.941 33.4 0.1499 0.5 4.53 1110.6 0
23-03-09 14:12:39 27.949 33.7 0.1499 0 2.01 1104.4 0
23-03-09 14:07:39 27.554 33 0.1499 1.01 3.52 570.6 0
23-03-09 14:02:39 28.32 33 0.1506 1.01 4.53 1101.9 0
23-03-09 13:57:39 28.493 33.3 0.1477 0.5 3.02 591.9 0
23-03-09 13:52:39 27.431 34.8 0.1456 1.51 4.53 1124.4 0
23-03-09 13:47:39 28.171 35.2 0.1499 0 2.52 1081.9 0
23-03-09 13:42:39 27.899 34.6 0.1463 0.5 4.53 1059.4 0
23-03-09 13:37:39 27.776 35 0.1492 1.01 3.02 1068.1 0
23-03-09 13:32:39 27.702 34.8 0.1492 1.51 4.03 1060.6 0
23-03-09 13:27:39 27.628 34.1 0.1499 1.51 3.52 1075.6 0
23-03-09 13:22:39 27.284 35.9 0.1492 1.01 3.02 1065.6 0
23-03-09 13:17:39 27.038 36.1 0.1492 1.01 3.52 1005.6 0
23-03-09 13:12:39 27.825 35.7 0.1499 0.5 3.02 1064.4 0
23-03-09 13:07:39 27.431 35.2 0.1499 0.5 3.52 1110.6 0
23-03-09 13:02:39 26.231 37.7 0.1492 1.01 3.02 1138.1 0
23-03-09 12:57:39 24.629 39.6 0.1492 0.5 2.52 381.9 0
23-03-09 12:52:39 24.315 40.3 0.1492 0.5 2.52 330.6 0
23-03-09 12:47:39 24.315 40.2 0.1492 0.5 2.52 356.9 0
23-03-09 12:42:39 24.195 40.1 0.1499 0.5 3.52 351.9 0
23-03-09 12:37:39 24.05 40.5 0.1499 0 2.01 316.9 0
23-03-09 12:32:39 23.809 41.1 0.1499 0.5 2.52 288.1 0
23-03-09 12:27:39 23.713 41.2 0.1499 0.5 3.02 263.1 0
23-03-09 12:22:39 23.472 40.3 0.1499 0.5 2.52 231.9 0
23-03-09 12:17:39 23.761 40.1 0.1492 0 2.52 216.9 0
23-03-09 12:12:39 23.665 40.4 0.1492 0 2.01 213.1 0
23-03-09 12:07:39 23.304 40.4 0.1492 0 2.52 215.6 0
23-03-09 12:02:39 23.376 40.9 0.1485 1.01 3.52 223.1 0
23-03-09 11:57:39 23.497 41.1 0.1492 0.5 3.02 245.6 0
23-03-09 11:52:39 23.761 40 0.1492 0.5 2.52 258.1 0
23-03-09 11:47:39 23.497 40 0.1499 0.5 3.02 261.9 0
23-03-09 11:42:39 23.881 39.9 0.1506 0 2.52 274.4 0
23-03-09 11:37:39 23.617 39.8 0.1499 1.01 4.03 311.9 0
23-03-09 11:32:39 24.219 40.4 0.1492 0 2.01 339.4 0
23-03-09 11:27:39 23.785 40.1 0.1492 0.5 3.02 338.1 0
23-03-09 11:22:39 24.677 38 0.1499 0 2.52 329.4 0
23-03-09 11:17:39 26.256 36.9 0.1506 1.01 4.53 756.9 0
23-03-09 11:12:39 25.525 39.6 0.1514 1.01 4.53 1163.1 0
23-03-09 11:07:39 25.404 37.7 0.1499 0.5 3.02 364.4 0
23-03-09 11:02:39 25.113 38.1 0.1506 0.5 2.52 644.4 0
23-03-09 10:57:39 23.376 40.2 0.1506 1.51 4.03 455.6 0
23-03-09 10:52:39 24.726 40.5 0.1506 0.5 3.02 1073.1 0
23-03-09 10:47:39 23.93 39.8 0.1499 0.5 2.52 329.4 0
23-03-09 10:42:39 24.219 38.7 0.1506 1.01 5.03 915.6 0
23-03-09 10:37:39 25.841 38.8 0.1506 0 2.52 1043.1 0
23-03-09 10:32:39 23.136 41.7 0.1499 0.5 2.52 685.6 0
23-03-09 10:27:39 23.016 41.2 0.1506 0.5 5.03 293.1 0
23-03-09 10:22:39 23.448 40.7 0.1499 0.5 3.02 299.4 0
23-03-09 10:17:39 22.848 41.1 0.1499 1.51 4.03 435.6 0
23-03-09 10:12:39 24.532 38.4 0.1506 0.5 3.02 356.9 0
23-03-09 10:07:39 24.774 41 0.1514 0 2.01 946.9 0
23-03-09 10:02:39 23.785 40.3 0.1506 0.5 2.52 448.1 0
23-03-09 09:57:39 24.315 40.6 0.1506 1.01 3.52 791.9 0
23-03-09 09:52:39 24.315 41.2 0.1506 1.01 3.52 716.9 0
23-03-09 09:47:39 23.088 41.7 0.1506 1.51 3.52 718.1 0
23-03-09 09:42:39 23.593 42.7 0.1506 0 1.51 813.1 0
23-03-09 09:37:39 22.13 43.5 0.1506 0.5 4.03 276.9 0
23-03-09 09:32:39 22.609 43 0.1506 0 1.51 294.4 0
23-03-09 09:27:39 22.321 43.4 0.1506 0.5 2.52 313.1 0
23-03-09 09:22:39 22.705 41.8 0.1506 0.5 3.02 344.4 0
23-03-09 09:17:39 23.4 42.1 0.1506 0 3.02 444.4 0
23-03-09 09:12:39 22.513 44.1 0.1506 0.5 3.52 470.6 0
23-03-09 09:07:39 21.676 43.6 0.1506 1.01 3.02 324.4 0
23-03-09 09:02:39 21.628 43.1 0.1506 0.5 2.01 173.1 0
23-03-09 08:57:39 23.016 41.1 0.1506 0.5 2.52 511.9 0
23-03-09 08:52:39 22.944 41.7 0.1506 1.01 3.52 493.1 0
23-03-09 08:47:39 23.16 41.9 0.1506 0.5 3.02 471.9 0
23-03-09 08:42:39 22.824 42.4 0.1506 1.01 3.02 455.6 0
23-03-09 08:37:39 22.585 42.9 0.1506 1.01 2.52 440.6 0
23-03-09 08:32:39 22.8 42.4 0.1506 0.5 3.02 433.1 0
23-03-09 08:27:39 22.178 43.2 0.1506 1.01 3.02 436.9 0
23-03-09 08:22:39 22.25 43.3 0.1506 0.5 3.02 423.1 0
23-03-09 08:17:39 22.274 44.7 0.1506 0 2.01 434.4 0
23-03-09 08:12:39 21.533 46.2 0.1506 0.5 3.02 413.1 0
23-03-09 08:07:39 21.151 47.2 0.1506 0.5 2.52 396.9 0
23-03-09 08:02:39 20.77 48.7 0.1506 0 2.01 350.6 0
23-03-09 07:57:39 19.436 51.3 0.1506 0 2.52 283.1 0
23-03-09 07:52:39 18.747 52.3 0.1506 0.5 2.01 184.4 0
23-03-09 07:47:39 18.438 53.6 0.1506 0 1.01 180.6 0
23-03-09 07:42:39 17.843 54.1 0.1506 0 1.01 113.1 0
23-03-09 07:37:39 17.534 54.6 0.1506 0 2.01 100.6 0
23-03-09 07:32:39 17.32 54.9 0.1506 0 1.51 68.1 0
23-03-09 07:27:39 17.13 54.9 0.1506 0 2.52 55.6 0
23-03-09 07:22:39 17.058 54.8 0.1506 0.5 1.51 45.6 0
23-03-09 07:17:39 17.058 54.6 0.1506 0 1.51 41.9 0
23-03-09 07:12:39 16.987 54.8 0.1506 0 1.51 43.1 0
23-03-09 07:07:39 16.892 54.8 0.1506 0 2.01 38.1 0
23-03-09 07:02:39 16.939 54.8 0.1506 0 1.51 30.6 0
23-03-09 06:57:39 16.654 55.5 0.1506 0 1.51 24.4 0
23-03-09 06:52:39 16.606 55.5 0.1506 0 1.01 16.9 0
23-03-09 06:47:39 16.606 55.2 0.1506 0 1.01 11.9 0
23-03-09 06:42:39 16.582 55.3 0.1506 0 2.01 5.6 0
23-03-09 06:37:39 16.439 55.5 0.1506 0 1.51 1.9 0
23-03-09 06:32:39 16.463 55.3 0.1506 0 1.51 0.6 0
23-03-09 06:27:39 16.392 55.4 0.1506 0 1.01 0.6 0
23-03-09 06:22:39 16.463 55.2 0.1506 0 1.51 0.6 0
23-03-09 06:17:39 16.415 55.3 0.1506 0 1.51 0.6 0
23-03-09 06:12:39 16.415 55.4 0.1506 0.5 2.01 0.6 0
23-03-09 06:07:39 16.153 56.2 0.1506 0 1.51 0.6 0
23-03-09 06:02:39 16.01 56.4 0.1506 0 0.5 0.6 0
23-03-09 05:57:39 16.034 56.4 0.1506 0 1.01 0.6 0
23-03-09 05:52:39 15.963 56.6 0.1506 0 1.51 0.6 0
23-03-09 05:47:39 15.819 56.8 0.1506 0 1.51 0.6 0
23-03-09 05:42:39 15.867 56.6 0.1506 0 1.01 0.6 0
23-03-09 05:37:39 16.01 56.2 0.1506 0 2.01 0.6 0
23-03-09 05:32:39 15.915 56.7 0.1506 0 1.51 0.6 0
23-03-09 05:27:39 15.843 56.2 0.1506 0 1.01 0.6 0
23-03-09 05:22:39 16.034 55.8 0.1506 0 1.51 0.6 0
23-03-09 05:17:39 16.058 55.6 0.1506 0 1.51 0.6 0
23-03-09 05:12:39 16.082 55.9 0.1506 0 2.01 0.6 0
23-03-09 05:07:39 16.082 55.7 0.1506 0 1.51 0.6 0
23-03-09 05:02:39 16.344 54.9 0.1506 0 1.01 0.6 0
23-03-09 04:57:39 16.32 55.2 0.1506 0 1.01 0.6 0
23-03-09 04:52:39 16.201 56.1 0.1506 0 1.01 0.6 0
23-03-09 04:47:39 15.986 57 0.1506 0 0 0.6 0
23-03-09 04:42:39 15.867 57.7 0.1506 0 0.5 0.6 0
23-03-09 04:37:39 15.724 57.9 0.1506 0 0 0.6 0
23-03-09 04:32:39 15.509 58.5 0.1506 0 0.5 0.6 0
23-03-09 04:27:39 15.199 59 0.1506 0 0 0.6 0
23-03-09 04:22:39 14.912 59.6 0.1506 0 0 0.6 0
23-03-09 04:17:39 14.529 59.9 0.1506 0 0 0.6 0
23-03-09 04:12:39 14.266 59.4 0.1506 0 0 0.6 0
23-03-09 04:07:39 14.361 58.2 0.1506 0 0 0.6 0
23-03-09 04:02:39 14.721 57.4 0.1506 0 0 0.6 0
23-03-09 03:57:39 14.673 57.5 0.1506 0 0 0.6 0
23-03-09 03:52:39 14.673 56.6 0.1506 0 0 0.6 0
23-03-09 03:47:39 15.055 55.4 0.1514 0 0 0.6 0
23-03-09 03:42:39 15.724 54.7 0.1506 0 0.5 0.6 0
23-03-09 03:37:39 16.034 54.3 0.1506 0 0 0.6 0
23-03-09 03:32:39 15.843 54.7 0.1514 0 0.5 0.6 0
23-03-09 03:27:39 15.986 54.5 0.1514 0 0.5 0.6 0
23-03-09 03:22:39 16.177 53.9 0.1514 0 1.01 0.6 0
23-03-09 03:17:39 16.511 54 0.1514 0 1.51 0.6 0
23-03-09 03:12:39 15.819 56.3 0.1514 0 1.01 0.6 0
23-03-09 03:07:39 15.247 56.9 0.1514 0 0 0.6 0
23-03-09 03:02:39 15.199 56.4 0.1506 0 0 0.6 0
23-03-09 02:57:39 15.509 56.2 0.1514 0 0 0.6 0
23-03-09 02:52:39 15.294 56.3 0.1506 0 0 0.6 0
23-03-09 02:47:39 15.151 56.8 0.1506 0 0.5 0.6 0
23-03-09 02:42:39 14.84 56.6 0.1514 0 0 0.6 0
23-03-09 02:37:39 15.247 55.8 0.1514 0 0 0.6 0
23-03-09 02:32:39 15.557 55 0.1514 0 0.5 0.6 0
23-03-09 02:27:39 15.533 55.5 0.1514 0 0.5 0.6 0
23-03-09 02:22:39 15.39 55.8 0.1514 0 0.5 0.6 0
23-03-09 02:17:39 15.485 56.2 0.1514 0 0 0.6 0
23-03-09 02:12:39 15.079 58 0.1514 0 0 0.6 0
23-03-09 02:07:39 14.529 59.6 0.1514 0 0 0.6 0
23-03-09 02:02:39 13.906 60.2 0.1514 0 0 0.6 0
23-03-09 01:57:39 13.978 59.6 0.1514 0 0 0.6 0
23-03-09 01:52:39 14.05 59.2 0.1514 0 0.5 0.6 0
23-03-09 01:47:39 14.002 58.6 0.1514 0 0 0.6 0
23-03-09 01:42:39 14.026 58.4 0.1514 0 0 0.6 0
23-03-09 01:37:39 14.05 58.7 0.1514 0 0 0.6 0
23-03-09 01:32:39 14.218 58.2 0.1514 0 0 0.6 0
23-03-09 01:27:39 14.194 58.3 0.1514 0 0 0.6 0
23-03-09 01:22:39 14.337 57.8 0.1514 0 0 0.6 0
23-03-09 01:17:39 14.361 57.8 0.1514 0 0 0.6 0
23-03-09 01:12:39 14.457 56.7 0.1514 0 0 0.6 0
23-03-09 01:07:39 14.481 57.1 0.1514 0 0 0.6 0
23-03-09 01:02:39 14.122 56.6 0.1514 0 0 0.6 0
23-03-09 00:57:39 14.481 55.5 0.1514 0 0 0.6 0
23-03-09 00:52:39 14.912 54.9 0.1514 0 0 0.6 0
23-03-09 00:47:39 14.936 54.3 0.1514 0 0 0.6 0
23-03-09 00:42:39 15.247 53.5 0.1514 0 0 0.6 0
23-03-09 00:37:39 15.557 52.5 0.1514 0 0 0.6 0
23-03-09 00:32:39 15.485 53.4 0.1514 0 0 0.6 0
23-03-09 00:27:39 15.557 52.2 0.1514 0 0 0.6 0
23-03-09 00:22:39 15.819 52.3 0.1514 0 0 0.6 0
23-03-09 00:17:39 15.652 52.2 0.1521 0 0 0.6 0
23-03-09 00:12:39 15.963 50.9 0.1514 0 0 0.6 0
23-03-09 00:07:39 15.986 50.8 0.1521 0 0 0.6 0
23-03-09 00:02:39 16.272 49.6 0.1514 0 0 0.6 0
23-03-08 23:57:39 16.82 48.3 0.1514 0 0 0.6 0
23-03-08 23:52:39 17.32 46.8 0.1521 0 0 0.6 0
23-03-08 23:47:39 17.915 45.7 0.1521 0 0.5 0.6 0
23-03-08 23:42:39 18.129 45.2 0.1521 0 1.51 0.6 0
23-03-08 23:37:39 18.152 44.6 0.1514 0 1.51 0.6 0
23-03-08 23:32:39 18.414 43.8 0.1521 0 2.52 0.6 0
23-03-08 23:27:39 18.509 43.6 0.1521 0.5 2.52 0.6 0
23-03-08 23:22:39 18.628 43.5 0.1521 0.5 2.52 0.6 0
23-03-08 23:17:39 18.557 43.3 0.1521 0.5 3.02 0.6 0
23-03-08 23:12:39 18.723 42.9 0.1521 1.01 2.52 0.6 0
23-03-08 23:07:39 18.557 43.1 0.1521 1.01 3.02 0.6 0
23-03-08 23:02:39 18.533 42.9 0.1521 0.5 3.02 0.6 0
23-03-08 22:57:39 18.628 42.6 0.1521 1.01 3.02 0.6 0
23-03-08 22:52:39 18.58 42.7 0.1521 0.5 3.52 0.6 0
23-03-08 22:47:39 18.818 42 0.1521 1.01 3.02 0.6 0
23-03-08 22:42:39 18.866 42 0.1521 1.01 3.52 0.6 0
23-03-08 22:37:39 18.818 42.4 0.1521 0.5 3.52 0.6 0
23-03-08 22:32:39 18.771 42.4 0.1521 0.5 2.01 0.6 0
23-03-08 22:27:39 18.699 42.4 0.1521 0.5 2.01 0.6 0
23-03-08 22:22:39 18.818 42 0.1521 0.5 2.52 0.6 0
23-03-08 22:17:39 18.937 42.1 0.1521 0.5 2.52 0.6 0
23-03-08 22:12:39 18.961 42 0.1521 0.5 2.01 0.6 0
23-03-08 22:07:39 18.937 42.2 0.1521 0.5 2.01 0.6 0
23-03-08 22:02:39 18.771 42.7 0.1521 0 1.51 0.6 0
23-03-08 21:57:39 18.818 42.7 0.1521 0 2.01 0.6 0
23-03-08 21:52:39 18.818 42.7 0.1521 0.5 2.52 0.6 0
23-03-08 21:47:39 18.889 42.6 0.1514 0.5 2.52 0.6 0
23-03-08 21:42:39 19.008 42.2 0.1521 0 2.01 0.6 0
23-03-08 21:37:39 19.08 42.1 0.1521 0 1.51 0.6 0
23-03-08 21:32:39 19.175 41.9 0.1521 0 1.51 0.6 0
23-03-08 21:27:39 19.341 41.3 0.1514 0.5 2.01 0.6 0
23-03-08 21:22:39 19.651 40.8 0.1521 1.01 3.52 0.6 0
23-03-08 21:17:39 19.555 40.7 0.1514 0.5 2.52 0.6 0
23-03-08 21:12:39 19.722 40.3 0.1521 0.5 2.52 0.6 0
23-03-08 21:07:39 19.532 40.4 0.1514 0.5 2.52 0.6 0
23-03-08 21:02:39 19.793 39.6 0.1514 0.5 2.01 0.6 0
23-03-08 20:57:39 19.912 39.2 0.1521 0.5 2.52 0.6 0
23-03-08 20:52:39 20.007 39 0.1514 1.01 2.52 0.6 0
23-03-08 20:47:39 19.651 39.3 0.1521 0.5 2.01 0.6 0
23-03-08 20:42:39 19.841 39 0.1514 0.5 3.02 0.6 0
23-03-08 20:37:39 19.936 38.5 0.1521 0.5 2.01 0.6 0
23-03-08 20:32:39 20.079 38.1 0.1514 0.5 3.52 0.6 0
23-03-08 20:27:39 20.293 37.7 0.1521 0.5 2.52 0.6 0
23-03-08 20:22:39 20.388 37.2 0.1514 0.5 3.02 0.6 0
23-03-08 20:17:39 20.484 37 0.1514 1.01 3.02 0.6 0
23-03-08 20:12:39 20.674 36.6 0.1514 1.01 3.52 0.6 0
23-03-08 20:07:39 20.722 36.7 0.1514 1.01 3.02 0.6 0
23-03-08 20:02:39 20.627 37.2 0.1514 0.5 3.02 0.6 0
23-03-08 19:57:39 20.698 38.4 0.1514 0.5 2.52 0.6 0
23-03-08 19:52:39 20.841 39.2 0.1514 0.5 2.52 0.6 0
23-03-08 19:47:39 20.913 39.5 0.1514 0.5 3.52 0.6 0
23-03-08 19:42:39 20.865 39.8 0.1514 0.5 2.52 0.6 0
23-03-08 19:37:39 20.865 39.3 0.1514 0 1.51 0.6 0
23-03-08 19:32:39 20.793 39.2 0.1514 0 1.51 0.6 0
23-03-08 19:27:39 21.056 38.6 0.1514 0 2.01 0.6 0
23-03-08 19:22:39 21.223 38.1 0.1514 0 1.51 0.6 0
23-03-08 19:17:39 21.557 37.6 0.1514 0.5 3.02 0.6 0
23-03-08 19:12:39 21.628 37.3 0.1514 0.5 2.01 0.6 0
23-03-08 19:07:39 21.987 36.7 0.1514 1.01 3.52 0.6 0
23-03-08 19:02:39 21.987 36.4 0.1514 0.5 2.01 0.6 0
23-03-08 18:57:39 22.489 35.8 0.1514 1.01 3.52 0.6 0
23-03-08 18:52:39 22.369 36 0.1514 0.5 2.52 0.6 0
23-03-08 18:47:39 22.489 35.9 0.1514 0.5 2.52 0.6 0
23-03-08 18:42:39 22.609 35.8 0.1514 0.5 2.52 0.6 0
23-03-08 18:37:39 22.944 35.2 0.1514 1.51 4.53 1.9 0
23-03-08 18:32:39 23.136 35 0.1506 1.01 3.52 4.4 0
23-03-08 18:27:39 23.352 34.5 0.1506 1.51 4.53 10.6 0
23-03-08 18:22:39 23.521 34 0.1514 1.51 5.03 18.1 0
23-03-08 18:17:39 23.809 33.6 0.1514 1.01 4.03 29.4 0
23-03-08 18:12:39 24.002 33.3 0.1514 1.51 4.53 45.6 0
23-03-08 18:07:39 24.363 33 0.1514 1.51 3.52 61.9 0
23-03-08 18:02:39 24.532 32.7 0.1514 1.51 4.03 78.1 0
23-03-08 17:57:39 24.677 32.2 0.1514 2.01 4.53 95.6 0
23-03-08 17:52:39 24.847 32.1 0.1521 2.01 5.03 115.6 0
23-03-08 17:47:39 25.113 31.8 0.1514 1.01 4.03 129.4 0
23-03-08 17:42:39 25.21 31.7 0.1514 2.01 4.53 144.4 0
23-03-08 17:37:39 25.477 31.1 0.1514 1.01 4.03 156.9 0
23-03-08 17:32:39 25.939 30.4 0.1514 0.5 3.52 178.1 0
23-03-08 17:27:39 26.109 30.5 0.1514 1.01 3.02 189.4 0
23-03-08 17:22:39 26.182 30.5 0.1514 1.51 3.02 213.1 0
23-03-08 17:17:39 26.061 30.4 0.1514 1.51 5.03 239.4 0
23-03-08 17:12:39 26.182 30.2 0.1514 1.51 5.03 256.9 0
23-03-08 17:07:39 26.451 29.9 0.1514 1.51 4.03 271.9 0
23-03-08 17:02:39 26.72 30.1 0.1514 1.01 3.52 291.9 0
23-03-08 16:57:39 26.695 29.5 0.1514 1.01 4.03 309.4 0
23-03-08 16:52:39 26.965 29.1 0.1521 1.51 4.03 334.4 0
23-03-08 16:47:39 27.308 28.9 0.1514 1.01 4.03 370.6 0
23-03-08 16:42:39 27.431 28.7 0.1514 1.01 3.52 398.1 0
23-03-08 16:37:39 27.776 29 0.1506 0.5 3.02 408.1 0
23-03-08 16:32:39 27.456 28.6 0.1514 1.01 3.52 425.6 0
23-03-08 16:27:39 27.949 28.1 0.1514 0.5 2.52 439.4 0
23-03-08 16:22:39 27.85 28.8 0.1506 0.5 3.02 466.9 0
23-03-08 16:17:39 27.604 28.7 0.1514 1.01 3.52 463.1 0
23-03-08 16:12:39 27.949 28.1 0.1514 1.01 3.52 346.9 0
23-03-08 16:07:39 27.924 28.5 0.1506 1.01 4.03 520.6 0
23-03-08 16:02:39 27.875 29.1 0.1506 1.01 4.03 431.9 0
23-03-08 15:57:39 27.628 28.3 0.1506 0.5 3.02 274.4 0
23-03-08 15:52:39 28.27 27.3 0.1521 1.01 3.52 594.4 0
23-03-08 15:47:39 28.99 27.8 0.1499 0 2.01 634.4 0
23-03-08 15:42:39 27.235 29.1 0.1506 0.5 2.52 558.1 0
23-03-08 15:37:39 27.481 28.8 0.1506 1.51 4.03 514.4 0
23-03-08 15:32:39 27.776 28.5 0.1521 2.01 5.03 568.1 0
23-03-08 15:27:39 28.27 27.8 0.1514 1.51 4.03 714.4 0
23-03-08 15:22:39 28.444 27.5 0.1514 0.5 3.02 741.9 0
23-03-08 15:17:39 28.791 28.7 0.1514 1.01 3.52 686.9 0
23-03-08 15:12:39 28.468 27.9 0.1514 0 3.02 756.9 0
23-03-08 15:07:39 28.493 28.3 0.1506 0.5 3.02 764.4 0
23-03-08 15:02:39 28.122 28.1 0.1514 0.5 3.02 740.6 0
23-03-08 14:57:39 27.727 29.1 0.1514 1.51 4.03 708.1 0
23-03-08 14:52:39 27.186 28.9 0.1514 1.51 3.52 811.9 0
23-03-08 14:47:39 27.924 28.8 0.1514 2.01 5.03 831.9 0
23-03-08 14:42:39 28.369 29 0.1514 1.01 4.53 845.6 0
23-03-08 14:37:39 28.147 28.5 0.1514 1.01 2.52 768.1 0
23-03-08 14:32:39 28.742 27.6 0.1514 1.01 3.52 903.1 0
23-03-08 14:27:39 28.543 29.6 0.1506 0.5 3.02 928.1 0
23-03-08 14:22:39 27.087 30.1 0.1506 0.5 3.02 956.9 0
23-03-08 14:17:39 27.554 28.9 0.1514 1.01 4.03 955.6 0
23-03-08 14:12:39 27.604 30.1 0.1506 1.51 5.03 759.4 0
23-03-08 14:07:39 27.85 29.8 0.1506 1.51 4.53 935.6 0
23-03-08 14:02:39 27.358 29.2 0.1514 1.01 4.53 998.1 0
23-03-08 13:57:39 28.122 29.2 0.1506 1.51 4.03 1038.1 0
23-03-08 13:52:39 27.259 29.9 0.1499 1.01 3.52 340.6 0
23-03-08 13:47:39 28.493 29.8 0.1499 0.5 3.02 576.9 0
23-03-08 13:42:39 26.867 29.9 0.1499 1.01 4.03 691.9 0
23-03-08 13:37:39 28.221 29.9 0.1492 1.01 4.53 1081.9 0
23-03-08 13:32:39 27.875 29.9 0.1492 1.01 3.02 1019.4 0
23-03-08 13:27:39 27.481 29.5 0.1492 1.01 4.03 976.9 0
23-03-08 13:22:39 27.875 29.3 0.1492 0.5 2.52 950.6 0
23-03-08 13:17:39 27.653 30 0.1499 1.01 4.03 1048.1 0
23-03-08 13:12:39 27.235 30.2 0.1492 1.01 3.52 836.9 0
23-03-08 13:07:39 27.431 30 0.1499 1.01 4.03 1051.9 0
23-03-08 13:02:39 27.235 31.4 0.1499 1.01 2.52 1060.6 0
23-03-08 12:57:39 27.628 30.6 0.1506 0.5 3.02 900.6 0
23-03-08 12:52:39 27.063 31 0.1514 0.5 3.02 1046.9 0
23-03-08 12:47:39 25.914 31.4 0.1506 1.51 5.03 1046.9 0
23-03-08 12:42:39 26.744 31.1 0.1506 1.51 4.03 1024.4 0
23-03-08 12:37:39 27.038 31.2 0.1499 1.01 4.53 1014.4 0
23-03-08 12:32:39 27.382 32.2 0.1506 0.5 4.03 1016.9 0
23-03-08 12:27:39 26.085 32.1 0.1506 1.01 4.03 1028.1 0
23-03-08 12:22:39 26.231 32.4 0.1506 1.01 3.52 1011.9 0
23-03-08 12:17:39 25.793 31.8 0.1506 1.51 3.52 1031.9 0
23-03-08 12:12:39 25.817 32.3 0.1506 1.01 4.03 1033.1 0
23-03-08 12:07:39 25.72 32.1 0.1514 1.01 3.02 1039.4 0
23-03-08 12:02:39 25.841 33 0.1506 1.01 3.52 1031.9 0
23-03-08 11:57:39 25.695 32.8 0.1506 1.51 4.03 1024.4 0
23-03-08 11:52:39 25.793 32.4 0.1499 0.5 4.53 1024.4 0
23-03-08 11:47:39 25.89 32.4 0.1514 1.51 4.53 1013.1 0
23-03-08 11:42:39 25.817 33.2 0.1506 1.01 3.02 999.4 0
23-03-08 11:37:39 24.798 33.4 0.1506 1.51 5.03 994.4 0
23-03-08 11:32:39 25.307 34 0.1506 1.01 4.03 993.1 0
23-03-08 11:27:39 24.46 34.6 0.1499 1.01 5.54 986.9 0
23-03-08 11:22:39 25.258 33.5 0.1514 1.01 5.03 974.4 0
23-03-08 11:17:39 24.653 34.2 0.1506 1.01 4.53 959.4 0
23-03-08 11:12:39 24.75 35.5 0.1499 1.51 5.03 943.1 0
23-03-08 11:07:39 24.726 34.5 0.1506 1.01 3.52 943.1 0
23-03-08 11:02:39 24.388 34.9 0.1506 1.01 4.53 935.6 0
23-03-08 10:57:39 24.412 34.8 0.1499 1.01 3.52 918.1 0
23-03-08 10:52:39 24.581 33.9 0.1506 1.01 4.53 909.4 0
23-03-08 10:47:39 24.074 35.1 0.1506 0.5 3.02 890.6 0
23-03-08 10:42:39 23.881 35.3 0.1492 0.5 2.52 874.4 0
23-03-08 10:37:39 24.219 34.8 0.1499 1.01 3.52 860.6 0
23-03-08 10:32:39 24.146 34.9 0.1499 0.5 4.03 851.9 0
23-03-08 10:27:39 23.617 35.1 0.1499 1.01 3.52 830.6 0
23-03-08 10:22:39 23.208 35.9 0.1499 2.01 4.53 815.6 0
23-03-08 10:17:39 23.184 35.4 0.1506 1.51 4.53 799.4 0
23-03-08 10:12:39 23.593 35.3 0.1499 1.01 4.03 781.9 0
23-03-08 10:07:39 22.609 35.9 0.1506 2.01 4.03 775.6 0
23-03-08 10:02:39 23.136 34.5 0.1506 1.01 4.53 758.1 0
23-03-08 09:57:39 23.16 35.5 0.1506 1.01 3.52 741.9 0
23-03-08 09:52:39 22.513 35.3 0.1506 1.51 4.03 715.6 0
23-03-08 09:47:39 22.681 35.7 0.1499 1.01 4.53 694.4 0
23-03-08 09:42:39 22.633 35.7 0.1506 1.51 4.53 675.6 0
23-03-08 09:37:39 22.824 34.5 0.1514 1.01 4.53 650.6 0
23-03-08 09:32:39 22.489 34.7 0.1499 1.01 3.52 619.4 0
23-03-08 09:27:39 22.561 35 0.1499 1.01 3.52 593.1 0
23-03-08 09:22:39 23.472 33.1 0.1499 0 3.52 578.1 0
23-03-08 09:17:39 22.92 34.4 0.1492 0 2.52 569.4 0
23-03-08 09:12:39 22.226 33.4 0.1499 0.5 2.01 560.6 0
23-03-08 09:07:39 22.585 34 0.1499 0.5 3.02 558.1 0
23-03-08 09:02:39 22.154 34.2 0.1499 0.5 2.52 538.1 0
23-03-08 08:57:39 22.034 34.2 0.1499 1.01 2.52 526.9 0
23-03-08 08:52:39 21.413 34.2 0.1506 1.01 4.03 503.1 0
23-03-08 08:47:39 21.366 34.3 0.1506 1.01 3.02 471.9 0
23-03-08 08:42:39 21.103 34.7 0.1499 1.01 3.02 463.1 0
23-03-08 08:37:39 21.199 35 0.1499 0.5 2.52 443.1 0
23-03-08 08:32:39 20.817 34.5 0.1499 1.01 2.52 414.4 0
23-03-08 08:27:39 21.39 35.8 0.1499 0 2.01 394.4 0
23-03-08 08:22:39 20.793 36.2 0.1499 0 2.01 369.4 0
23-03-08 08:17:39 20.674 38.1 0.1499 0 2.52 350.6 0
23-03-08 08:12:39 20.126 38.6 0.1492 0 1.51 326.9 0
23-03-08 08:07:39 19.746 40.1 0.1492 0 1.01 306.9 0
23-03-08 08:02:39 19.508 41.5 0.1492 0 0.5 285.6 0
23-03-08 07:57:39 19.032 44.7 0.1492 0 0 260.6 0
23-03-08 07:52:39 17.653 48 0.1492 0 0 241.9 0
23-03-08 07:47:39 16.939 49.3 0.1492 0 0 219.4 0
23-03-08 07:42:39 16.511 51.9 0.1492 0 0 196.9 0
23-03-08 07:37:39 15.652 54.9 0.1499 0 0 174.4 0
23-03-08 07:32:39 14.553 56.3 0.1499 0 0 154.4 0
23-03-08 07:27:39 14.409 57.6 0.1499 0 0 136.9 0
23-03-08 07:22:39 13.69 59 0.1499 0 0 120.6 0
23-03-08 07:17:39 12.823 61.1 0.1499 0 0 101.9 0
23-03-08 07:12:39 11.904 62.4 0.1499 0 0 85.6 0
23-03-08 07:07:39 11.297 62.4 0.1499 0 0 68.1 0
23-03-08 07:02:39 10.785 63.8 0.1499 0 0 38.1 0
23-03-08 06:57:39 10.051 64 0.1499 0 0 30.6 0
23-03-08 06:52:39 10.051 62.5 0.1499 0 0 25.6 0
23-03-08 06:47:39 10.247 61 0.1499 0 0 19.4 0
23-03-08 06:42:39 10.467 59.8 0.1499 0 0 11.9 0
23-03-08 06:37:39 10.565 58.2 0.1499 0 0 5.6 0
23-03-08 06:32:39 10.614 58 0.1499 0 0 3.1 0
23-03-08 06:27:39 10.858 57.8 0.1499 0 0.5 1.9 0
23-03-08 06:22:39 10.736 58.1 0.1506 0 0 0.6 0
23-03-08 06:17:39 10.883 57.6 0.1506 0 0.5 0.6 0
23-03-08 06:12:39 10.345 59.4 0.1499 0 0 0.6 0
23-03-08 06:07:39 10.394 58.7 0.1499 0 0 0.6 0
23-03-08 06:02:39 10.394 57.7 0.1506 0 0 0.6 0
23-03-08 05:57:39 10.98 55.2 0.1506 0 0 0.6 0
23-03-08 05:52:39 11.321 54.7 0.1506 0 0 0.6 0
23-03-08 05:47:39 11.589 53.9 0.1506 0 0 0.6 0
23-03-08 05:42:39 11.589 54.5 0.1506 0 0 0.6 0
23-03-08 05:37:39 11.419 55 0.1506 0 0.5 0.6 0
23-03-08 05:32:39 11.37 54.7 0.1506 0 0 0.6 0
23-03-08 05:27:39 11.419 55 0.1506 0 0 0.6 0
23-03-08 05:22:39 11.394 55 0.1506 0 0 0.6 0
23-03-08 05:17:39 11.565 55.1 0.1506 0 0 0.6 0
23-03-08 05:12:39 11.492 55.1 0.1506 0 0 0.6 0
23-03-08 05:07:39 11.516 55.3 0.1506 0 0.5 0.6 0
23-03-08 05:02:39 11.419 55 0.1506 0 0 0.6 0
23-03-08 04:57:39 11.589 54.5 0.1506 0 0 0.6 0
23-03-08 04:52:39 11.321 55.2 0.1506 0 0 0.6 0
23-03-08 04:47:39 10.883 56.1 0.1506 0 0 0.6 0
23-03-08 04:42:39 10.492 54.8 0.1506 0 0 0.6 0
23-03-08 04:37:39 11.029 53 0.1506 0 0 0.6 0
23-03-08 04:32:39 11.37 52.2 0.1514 0 0 0.6 0
23-03-08 04:27:39 11.589 51.8 0.1506 0 0 0.6 0
23-03-08 04:22:39 11.977 50.4 0.1514 0 0 0.6 0
23-03-08 04:17:39 11.904 51 0.1506 0 0 0.6 0
23-03-08 04:12:39 11.783 50.7 0.1514 0 0 0.6 0
23-03-08 04:07:39 12.122 49.7 0.1514 0 0 0.6 0
23-03-08 04:02:39 11.904 50.4 0.1514 0 0 0.6 0
23-03-08 03:57:39 11.953 49.1 0.1514 0 0 0.6 0
23-03-08 03:52:39 12.678 47.6 0.1514 0 0 0.6 0
23-03-08 03:47:39 12.944 47.4 0.1514 0 0 0.6 0
23-03-08 03:42:39 13.088 46.3 0.1514 0 0 0.6 0
23-03-08 03:37:39 13.81 44.8 0.1514 0 0 0.6 0
23-03-08 03:32:39 14.074 44.1 0.1514 0 0 0.6 0
23-03-08 03:27:39 14.505 43 0.1514 0 0.5 0.6 0
23-03-08 03:22:39 14.745 43 0.1521 0 1.01 0.6 0
23-03-08 03:17:39 14.792 43.1 0.1521 0 0.5 0.6 0
23-03-08 03:12:39 15.103 43 0.1521 0 1.01 0.6 0
23-03-08 03:07:39 15.031 44.1 0.1521 0 1.01 0.6 0
23-03-08 03:02:39 14.577 45.9 0.1521 0 1.51 0.6 0
23-03-08 02:57:39 14.409 46.6 0.1514 0 1.51 0.6 0
23-03-08 02:52:39 14.361 46.8 0.1521 0 1.01 0.6 0
23-03-08 02:47:39 14.529 47.1 0.1521 0 1.51 0.6 0
23-03-08 02:42:39 14.17 48.6 0.1514 0 1.51 0.6 0
23-03-08 02:37:39 13.93 49 0.1514 0 1.51 0.6 0
23-03-08 02:32:39 13.882 48.7 0.1514 0 0.5 0.6 0
23-03-08 02:27:39 14.098 48.3 0.1514 0 0.5 0.6 0
23-03-08 02:22:39 14.481 47.8 0.1521 0 1.01 0.6 0
23-03-08 02:17:39 14.577 47.4 0.1521 0 0.5 0.6 0
23-03-08 02:12:39 14.577 47.5 0.1521 0 0.5 0.6 0
23-03-08 02:07:39 14.553 47.3 0.1521 0 0.5 0.6 0
23-03-08 02:02:39 14.96 46.7 0.1521 0 1.01 0.6 0
23-03-08 01:57:39 15.199 45.9 0.1521 0 2.01 0.6 0
23-03-08 01:52:39 15.438 46.3 0.1521 0.5 2.52 0.6 0
23-03-08 01:47:39 14.649 47.2 0.1521 0 1.01 0.6 0
23-03-08 01:42:39 15.103 46.2 0.1521 0 1.01 0.6 0
23-03-08 01:37:39 14.936 46.6 0.1521 0 1.01 0.6 0
23-03-08 01:32:39 15.079 46.4 0.1521 0 1.01 0.6 0
23-03-08 01:27:39 15.031 46.1 0.1521 0 0.5 0.6 0
23-03-08 01:22:39 15.151 45.9 0.1521 0 1.51 0.6 0
23-03-08 01:17:39 15.103 46.2 0.1521 0 1.01 0.6 0
23-03-08 01:12:39 15.103 46.3 0.1521 0 1.51 0.6 0
23-03-08 01:07:39 15.103 46.2 0.1521 0 1.01 0.6 0
23-03-08 01:02:39 15.318 45.4 0.1521 0 1.01 0.6 0
23-03-08 00:57:39 15.652 45.1 0.1521 0 1.51 0.6 0
23-03-08 00:52:39 15.605 44.8 0.1521 0 2.01 0.6 0
23-03-08 00:47:39 15.819 44.5 0.1521 0 2.52 0.6 0
23-03-08 00:42:39 15.867 44.4 0.1521 0.5 2.52 0.6 0
23-03-08 00:37:39 16.01 44.1 0.1521 0.5 3.02 0.6 0
23-03-08 00:32:39 16.106 43.8 0.1521 0.5 2.01 0.6 0
23-03-08 00:27:39 16.201 43.7 0.1521 0.5 2.52 0.6 0
23-03-08 00:22:39 16.368 43.2 0.1521 1.01 3.02 0.6 0
23-03-08 00:17:39 16.368 43.2 0.1521 0.5 2.01 0.6 0
23-03-08 00:12:39 16.558 42.9 0.1521 1.01 3.02 0.6 0
23-03-08 00:07:39 16.701 42.7 0.1535 1.01 3.02 0.6 0
23-03-08 00:02:39 16.606 43 0.1521 1.01 2.52 0.6 0
23-03-07 23:57:39 16.725 42.9 0.1521 1.01 3.02 0.6 0
23-03-07 23:52:39 16.654 43.1 0.1521 0.5 2.52 0.6 0
23-03-07 23:47:39 16.63 43.3 0.1521 0.5 3.02 0.6 0
23-03-07 23:42:39 16.868 42.7 0.1521 1.01 3.52 0.6 0
23-03-07 23:37:39 16.749 43.1 0.1521 0.5 2.52 0.6 0
23-03-07 23:32:39 16.915 42.7 0.1521 0.5 2.52 0.6 0
23-03-07 23:27:39 17.082 42.5 0.1521 1.01 3.02 0.6 0
23-03-07 23:22:39 16.987 42.4 0.1521 0.5 3.02 0.6 0
23-03-07 23:17:39 17.177 42.2 0.1521 1.01 3.52 0.6 0
23-03-07 23:12:39 17.153 42.5 0.1521 0.5 3.02 0.6 0
23-03-07 23:07:39 17.391 42 0.1521 1.01 2.52 0.6 0
23-03-07 23:02:39 17.439 42.2 0.1521 1.01 3.02 0.6 0
23-03-07 22:57:39 17.344 42.1 0.1521 0.5 2.52 0.6 0
23-03-07 22:52:39 17.677 41.9 0.1521 1.01 3.02 0.6 0
23-03-07 22:47:39 17.843 41.6 0.1521 1.01 3.52 0.6 0
23-03-07 22:42:39 17.867 41.7 0.1521 0.5 3.02 0.6 0
23-03-07 22:37:39 18.01 41.2 0.1521 1.01 3.02 0.6 0
23-03-07 22:32:39 18.129 41 0.1521 1.01 3.02 0.6 0
23-03-07 22:27:39 18.081 41.2 0.1521 1.01 3.02 0.6 0
23-03-07 22:22:39 18.176 41 0.1521 1.01 3.52 0.6 0
23-03-07 22:17:39 18.438 40.4 0.1521 1.51 3.52 0.6 0
23-03-07 22:12:39 18.509 40.3 0.1521 1.51 3.52 0.6 0
23-03-07 22:07:39 18.557 40.3 0.1521 1.51 3.52 0.6 0
23-03-07 22:02:39 18.58 40.2 0.1521 1.51 3.52 0.6 0
23-03-07 21:57:39 18.771 39.8 0.1521 2.01 4.03 0.6 0
23-03-07 21:52:39 18.485 40.7 0.1528 1.51 4.03 0.6 0
23-03-07 21:47:39 18.247 41 0.1535 1.01 3.52 0.6 0
23-03-07 21:42:39 18.295 40.6 0.1521 1.51 4.03 0.6 0
23-03-07 21:37:39 18.2 40.9 0.1521 1.01 4.03 0.6 0
23-03-07 21:32:39 18.271 40.7 0.1521 1.01 2.52 0.6 0
23-03-07 21:27:39 18.485 40.2 0.1521 1.01 3.02 0.6 0
23-03-07 21:22:39 18.485 39.9 0.1521 0.5 2.52 0.6 0
23-03-07 21:17:39 18.747 39.7 0.1528 0.5 3.02 0.6 0
23-03-07 21:12:39 18.747 39.8 0.1521 0.5 3.02 0.6 0
23-03-07 21:07:39 18.913 39.3 0.1521 1.01 2.52 0.6 0
23-03-07 21:02:39 18.985 39.1 0.1521 0.5 2.52 0.6 0
23-03-07 20:57:39 19.318 38.5 0.1521 1.51 3.52 0.6 0
23-03-07 20:52:39 19.46 38.1 0.1521 1.51 4.53 0.6 0
23-03-07 20:47:39 19.508 37.8 0.1521 1.51 3.52 0.6 0
23-03-07 20:42:39 19.603 37.5 0.1521 1.51 4.53 0.6 0
23-03-07 20:37:39 19.674 37.3 0.1521 2.01 4.03 0.6 0
23-03-07 20:32:39 19.746 37 0.1521 1.51 4.03 0.6 0
23-03-07 20:27:39 19.793 36.8 0.1521 2.01 4.53 0.6 0
23-03-07 20:22:39 19.817 36.5 0.1521 1.51 3.52 0.6 0
23-03-07 20:17:39 19.793 36.6 0.1521 1.01 3.52 0.6 0
23-03-07 20:12:39 20.055 36.1 0.1521 1.51 4.53 0.6 0
23-03-07 20:07:39 20.15 35.8 0.1521 1.51 3.52 0.6 0
23-03-07 20:02:39 20.103 35.9 0.1521 1.01 4.03 0.6 0
23-03-07 19:57:39 20.198 35.7 0.1521 0.5 3.02 0.6 0
23-03-07 19:52:39 20.269 35.3 0.1521 1.01 3.02 0.6 0
23-03-07 19:47:39 20.317 35.1 0.1521 1.01 3.52 0.6 0
23-03-07 19:42:39 20.222 35.1 0.1521 1.01 4.53 0.6 0
23-03-07 19:37:39 19.793 35.7 0.1521 0 2.52 0.6 0
23-03-07 19:32:39 19.627 35.5 0.1514 0 1.51 0.6 0
23-03-07 19:27:39 19.793 35.5 0.1514 0 1.51 0.6 0
23-03-07 19:22:39 20.007 35.3 0.1514 0.5 3.02 0.6 0
23-03-07 19:17:39 20.079 35.7 0.1514 0 1.51 0.6 0
23-03-07 19:12:39 20.365 35.2 0.1514 1.01 3.02 0.6 0
23-03-07 19:07:39 20.388 35.2 0.1521 1.01 3.02 0.6 0
23-03-07 19:02:39 20.388 35.6 0.1521 0.5 2.52 0.6 0
23-03-07 18:57:39 20.674 35 0.1514 1.01 3.52 0.6 0
23-03-07 18:52:39 20.841 34.8 0.1514 1.01 4.03 0.6 0
23-03-07 18:47:39 20.936 34.8 0.1514 1.51 4.03 0.6 0
23-03-07 18:42:39 21.103 34.7 0.1514 1.01 3.52 0.6 0
23-03-07 18:37:39 21.246 34.4 0.1514 1.51 4.53 3.1 0
23-03-07 18:32:39 21.39 34.3 0.1514 1.51 3.02 4.4 0
23-03-07 18:27:39 21.533 34.5 0.1514 1.01 2.52 10.6 0
23-03-07 18:22:39 21.819 34.1 0.1521 1.51 4.03 18.1 0
23-03-07 18:17:39 21.963 34.1 0.1514 1.51 4.03 26.9 0
23-03-07 18:12:39 22.154 33.9 0.1514 1.51 4.03 39.4 0
23-03-07 18:07:39 22.345 33.6 0.1528 2.01 5.54 53.1 0
23-03-07 18:02:39 22.633 33.9 0.1521 2.01 4.53 68.1 0
23-03-07 17:57:39 22.92 33.8 0.1514 1.51 4.53 86.9 0
23-03-07 17:52:39 22.968 33.8 0.1521 2.01 4.53 103.1 0
23-03-07 17:47:39 23.136 33.4 0.1528 2.01 5.03 123.1 0
23-03-07 17:42:39 23.352 33.3 0.1528 2.52 6.04 145.6 0
23-03-07 17:37:39 23.545 33.3 0.1521 2.01 5.03 161.9 0
23-03-07 17:32:39 23.545 33.1 0.1521 2.52 5.03 170.6 0
23-03-07 17:27:39 24.002 33 0.1521 2.52 6.04 204.4 0
23-03-07 17:22:39 24.195 33.4 0.1521 2.01 6.04 225.6 0
23-03-07 17:17:39 24.605 32.7 0.1514 1.51 4.53 243.1 0
23-03-07 17:12:39 24.653 33.1 0.1514 2.01 5.03 281.9 0
23-03-07 17:07:39 24.605 32.4 0.1528 2.01 5.54 301.9 0
23-03-07 17:02:39 25.04 32 0.1528 1.51 4.03 321.9 0
23-03-07 16:57:39 25.307 32.2 0.1521 1.51 7.05 338.1 0
23-03-07 16:52:39 25.477 32 0.1521 2.01 6.04 363.1 0
23-03-07 16:47:39 25.598 32.1 0.1514 1.51 4.03 395.6 0
23-03-07 16:42:39 25.598 31.5 0.1521 1.51 5.03 419.4 0
23-03-07 16:37:39 25.939 32 0.1521 1.51 5.54 431.9 0
23-03-07 16:32:39 25.574 31.9 0.1528 2.01 5.54 439.4 0
23-03-07 16:27:39 25.283 31.4 0.1521 2.01 6.04 398.1 0
23-03-07 16:22:39 26.378 31.3 0.1514 1.51 5.03 515.6 0
23-03-07 16:17:39 26.231 31.9 0.1514 1.51 4.03 553.1 0
23-03-07 16:12:39 25.647 32.2 0.1521 2.52 6.04 545.6 0
23-03-07 16:07:39 25.55 31.5 0.1528 2.52 7.55 560.6 0
23-03-07 16:02:39 26.744 31.7 0.1514 1.51 4.03 586.9 0
23-03-07 15:57:39 26.256 32 0.1514 2.01 6.04 628.1 0
23-03-07 15:52:39 26.158 32 0.1521 2.52 6.04 646.9 0
23-03-07 15:47:39 26.671 31.3 0.1521 2.01 6.04 626.9 0
23-03-07 15:42:39 27.136 30.8 0.1528 1.51 4.53 753.1 0
23-03-07 15:37:39 26.549 31.8 0.1506 1.51 6.04 444.4 0
23-03-07 15:32:39 26.671 31.3 0.1514 2.01 5.54 695.6 0
23-03-07 15:27:39 26.549 31.6 0.1521 2.52 5.03 798.1 0
23-03-07 15:22:39 26.524 31.2 0.1521 2.01 7.05 503.1 0
23-03-07 15:17:39 27.628 31.3 0.1514 2.01 5.54 824.4 0
23-03-07 15:12:39 26.916 30.8 0.1514 2.52 6.04 711.9 0
23-03-07 15:07:39 27.85 30.7 0.1521 1.51 5.03 859.4 0
23-03-07 15:02:39 26.989 31.8 0.1506 2.01 6.04 885.6 0
23-03-07 14:57:39 26.72 32.9 0.1521 1.51 4.53 914.4 0
23-03-07 14:52:39 24.895 33 0.1521 2.52 6.04 479.4 0
23-03-07 14:47:39 26.94 31.7 0.1514 1.51 4.53 826.9 0
23-03-07 14:42:39 25.089 33.8 0.1514 2.01 5.03 614.4 0
23-03-07 14:37:39 26.085 32.8 0.1514 1.51 4.03 569.4 0
23-03-07 14:32:39 25.744 32.7 0.1514 2.52 6.04 968.1 0
23-03-07 14:27:39 27.087 30.8 0.1506 2.01 4.53 704.4 0
23-03-07 14:22:39 27.186 31.7 0.1514 2.01 5.03 1008.1 0
23-03-07 14:17:39 25.841 32.7 0.1492 2.52 5.03 1006.9 0
23-03-07 14:12:39 26.744 32.8 0.1514 2.01 5.03 1005.6 0
23-03-07 14:07:39 27.407 32.7 0.1521 1.01 3.02 904.4 0
23-03-07 14:02:39 27.21 31.2 0.1514 2.01 6.54 694.4 0
23-03-07 13:57:39 26.182 32.3 0.1528 2.52 6.04 974.4 0
23-03-07 13:52:39 26.524 32.5 0.1514 2.52 6.54 989.4 0
23-03-07 13:47:39 26.524 31.4 0.1521 1.51 4.53 996.9 0
23-03-07 13:42:39 26.231 32.6 0.1506 2.01 5.03 1015.6 0
23-03-07 13:37:39 26.818 31.4 0.1521 1.51 6.04 1011.9 0
23-03-07 13:32:39 25.866 32.4 0.1521 2.01 4.53 1011.9 0
23-03-07 13:27:39 26.402 31.7 0.1528 1.51 5.03 1030.6 0
23-03-07 13:22:39 26.744 32 0.1514 1.01 3.52 580.6 0
23-03-07 13:17:39 26.475 32.4 0.1521 2.01 4.53 1046.9 0
23-03-07 13:12:39 25.695 32.8 0.1514 2.01 4.53 1045.6 0
23-03-07 13:07:39 26.378 32.6 0.1514 1.51 4.53 1064.4 0
23-03-07 13:02:39 26.549 33.1 0.1514 1.01 6.04 1066.9 0
23-03-07 12:57:39 25.477 32.4 0.1514 2.01 5.03 1069.4 0
23-03-07 12:52:39 26.451 33.8 0.1514 1.51 3.02 1074.4 0
23-03-07 12:47:39 24.992 34.2 0.1528 2.52 5.03 1050.6 0
23-03-07 12:42:39 25.477 34.7 0.1521 2.52 6.54 1059.4 0
23-03-07 12:37:39 25.258 34.4 0.1521 2.01 6.04 1055.6 0
23-03-07 12:32:39 25.963 33.6 0.1514 1.51 3.52 1060.6 0
23-03-07 12:27:39 25.623 34.2 0.1514 1.51 5.03 1064.4 0
23-03-07 12:22:39 24.798 34.3 0.1521 2.01 5.54 1059.4 0
23-03-07 12:17:39 25.065 35.2 0.1514 1.51 5.03 1053.1 0
23-03-07 12:12:39 24.508 34.6 0.1514 1.51 4.53 1055.6 0
23-03-07 12:07:39 25.113 33.6 0.1514 2.52 6.54 1051.9 0
23-03-07 12:02:39 25.501 35.2 0.1499 1.51 4.53 1051.9 0
23-03-07 11:57:39 25.065 35.2 0.1506 2.01 5.54 1040.6 0
23-03-07 11:52:39 25.016 35.2 0.1506 1.51 5.03 1041.9 0
23-03-07 11:47:39 24.171 35.3 0.1506 1.51 4.53 1039.4 0
23-03-07 11:42:39 25.186 35.4 0.1514 0.5 4.53 1028.1 0
23-03-07 11:37:39 24.484 36 0.1506 1.01 4.53 1018.1 0
23-03-07 11:32:39 24.171 36.4 0.1506 1.01 3.02 1008.1 0
23-03-07 11:27:39 24.146 36.9 0.1506 2.01 5.54 1001.9 0
23-03-07 11:22:39 25.016 36 0.1514 1.01 4.53 993.1 0
23-03-07 11:17:39 24.605 36.9 0.1506 1.01 3.52 986.9 0
23-03-07 11:12:39 23.93 38.1 0.1499 1.51 4.53 970.6 0
23-03-07 11:07:39 23.641 39.6 0.1499 1.51 4.03 960.6 0
23-03-07 11:02:39 24.122 37.3 0.1506 1.01 3.02 949.4 0
23-03-07 10:57:39 23.521 38.9 0.1499 1.51 5.03 935.6 0
23-03-07 10:52:39 23.617 38.2 0.1528 1.51 4.53 924.4 0
23-03-07 10:47:39 23.881 38.6 0.1506 1.01 3.52 909.4 0
23-03-07 10:42:39 23.857 39.4 0.1514 1.51 3.52 884.4 0
23-03-07 10:37:39 22.992 39.3 0.1521 1.51 4.53 871.9 0
23-03-07 10:32:39 23.665 38.3 0.1506 1.51 4.53 858.1 0
23-03-07 10:27:39 23.954 39 0.1514 1.01 3.52 844.4 0
23-03-07 10:22:39 23.665 40 0.1506 1.01 3.52 833.1 0
23-03-07 10:17:39 22.657 40.6 0.1506 2.01 4.53 816.9 0
23-03-07 10:12:39 23.256 40.5 0.1506 1.01 3.52 798.1 0
23-03-07 10:07:39 22.944 40.6 0.1499 1.51 4.03 784.4 0
23-03-07 10:02:39 23.064 41.7 0.1499 1.51 5.03 766.9 0
23-03-07 09:57:39 22.202 41.5 0.1506 1.51 5.03 749.4 0
23-03-07 09:52:39 22.154 41.8 0.1506 1.51 4.03 734.4 0
23-03-07 09:47:39 22.92 41.7 0.1506 1.01 3.52 713.1 0
23-03-07 09:42:39 21.891 43 0.1506 2.01 4.53 698.1 0
23-03-07 09:37:39 22.896 42.8 0.1521 1.51 4.53 680.6 0
23-03-07 09:32:39 21.676 43.8 0.1506 1.51 4.03 658.1 0
23-03-07 09:27:39 21.963 43.2 0.1506 1.01 3.52 641.9 0
23-03-07 09:22:39 22.489 43.6 0.1492 0.5 3.02 624.4 0
23-03-07 09:17:39 22.25 44.6 0.1499 0 1.51 601.9 0
23-03-07 09:12:39 21.628 45.6 0.1492 0 3.02 580.6 0
23-03-07 09:07:39 21.795 46.3 0.1499 0 1.51 560.6 0
23-03-07 09:02:39 21.056 45.7 0.1499 0 2.52 540.6 0
23-03-07 08:57:39 20.174 46 0.1499 1.51 3.52 518.1 0
23-03-07 08:52:39 20.627 46.7 0.1506 1.01 4.03 500.6 0
23-03-07 08:47:39 20.341 47.8 0.1506 1.01 3.02 478.1 0
23-03-07 08:42:39 19.722 48.8 0.1506 1.51 3.52 459.4 0
23-03-07 08:37:39 19.246 49.2 0.1506 1.51 3.52 438.1 0
23-03-07 08:32:39 19.365 50 0.1499 1.51 4.03 416.9 0
23-03-07 08:27:39 19.389 51 0.1499 0.5 4.03 396.9 0
23-03-07 08:22:39 18.699 52.3 0.1521 1.01 3.52 374.4 0
23-03-07 08:17:39 18.01 54.9 0.1492 0 1.51 355.6 0
23-03-07 08:12:39 17.439 54.6 0.1492 0 0.5 330.6 0
23-03-07 08:07:39 17.558 55.8 0.1492 0 0 306.9 0
23-03-07 08:02:39 17.368 57.2 0.1492 0 0 284.4 0
23-03-07 07:57:39 16.725 58.3 0.1492 0 1.01 264.4 0
23-03-07 07:52:39 16.153 58.3 0.1492 0 1.01 245.6 0
23-03-07 07:47:39 16.177 60.4 0.1492 0 0 225.6 0
23-03-07 07:42:39 15.103 61.1 0.1492 0 1.01 203.1 0
23-03-07 07:37:39 14.529 62.1 0.1499 0 1.01 181.9 0
23-03-07 07:32:39 14.218 63.2 0.1499 0 1.01 161.9 0
23-03-07 07:27:39 13.738 64.4 0.1499 0 1.01 141.9 0
23-03-07 07:22:39 13.233 65.8 0.1499 0 1.51 123.1 0
23-03-07 07:17:39 12.775 67.8 0.1506 0 1.51 104.4 0
23-03-07 07:12:39 11.953 70.5 0.1506 0 0 86.9 0
23-03-07 07:07:39 11.151 71.3 0.1506 0 0 61.9 0
23-03-07 07:02:39 11.175 71.2 0.1506 0 0 33.1 0
23-03-07 06:57:39 11.273 72.2 0.1506 0 1.01 28.1 0
23-03-07 06:52:39 11.2 74 0.1506 0 0.5 21.9 0
23-03-07 06:47:39 10.907 76.2 0.1506 0 1.01 15.6 0
23-03-07 06:42:39 10.198 77.6 0.1506 0 0 10.6 0
23-03-07 06:37:39 9.657 77.4 0.1506 0 0 5.6 0
23-03-07 06:32:39 9.977 76.8 0.1506 0 0 1.9 0
23-03-07 06:27:39 10.467 77.4 0.1506 0 0 0.6 0
23-03-07 06:22:39 10.198 78.9 0.1506 0 0.5 0.6 0
23-03-07 06:17:39 9.805 79.3 0.1506 0 0 0.6 0
23-03-07 06:12:39 9.682 79.1 0.1506 0 0 0.6 0
23-03-07 06:07:39 9.583 78.8 0.1514 0 0 0.6 0
23-03-07 06:02:39 9.854 78.7 0.1506 0 0 0.6 0
23-03-07 05:57:39 9.657 78.9 0.1506 0 0 0.6 0
23-03-07 05:52:39 9.534 78.2 0.1506 0 0 0.6 0
23-03-07 05:47:39 9.731 77.6 0.1514 0 0 0.6 0
23-03-07 05:42:39 9.854 77.4 0.1514 0 0 0.6 0
23-03-07 05:37:39 9.829 77 0.1514 0 0 0.6 0
23-03-07 05:32:39 9.879 75.9 0.1514 0 0 0.6 0
23-03-07 05:27:39 10.198 75.5 0.1514 0 0 0.6 0
23-03-07 05:22:39 10.124 75.3 0.1514 0 0 0.6 0
23-03-07 05:17:39 10.149 74.8 0.1514 0 0 0.6 0
23-03-07 05:12:39 10.198 74.3 0.1514 0 0 0.6 0
23-03-07 05:07:39 10.173 73.5 0.1514 0 0 0.6 0
23-03-07 05:02:39 10.296 72.8 0.1514 0 0 0.6 0
23-03-07 04:57:39 10.638 71.5 0.1514 0 0 0.6 0
23-03-07 04:52:39 10.883 70.3 0.1514 0 0 0.6 0
23-03-07 04:47:39 11.321 69.6 0.1514 0 0 0.6 0
23-03-07 04:42:39 11.613 68.6 0.1514 0 0 0.6 0
23-03-07 04:37:39 12.268 66.9 0.1514 0 0 0.6 0
23-03-07 04:32:39 12.92 65.9 0.1521 0 1.01 0.6 0
23-03-07 04:27:39 13.161 66.5 0.1521 0 1.51 0.6 0
23-03-07 04:22:39 12.896 66.3 0.1521 0 0.5 0.6 0
23-03-07 04:17:39 12.992 66 0.1521 0 0.5 0.6 0
23-03-07 04:12:39 13.088 66 0.1521 0 1.01 0.6 0
23-03-07 04:07:39 13.161 66 0.1521 0 2.01 0.6 0
23-03-07 04:02:39 13.209 65.9 0.1521 0 1.51 0.6 0
23-03-07 03:57:39 13.088 66.3 0.1521 0 2.01 0.6 0
23-03-07 03:52:39 13.064 65.5 0.1521 0 2.01 0.6 0
23-03-07 03:47:39 13.137 64.8 0.1521 0 1.01 0.6 0
23-03-07 03:42:39 13.449 63.9 0.1521 0 2.52 0.6 0
23-03-07 03:37:39 13.57 63.4 0.1521 0.5 2.52 0.6 0
23-03-07 03:32:39 13.497 62.9 0.1521 0 2.01 0.6 0
23-03-07 03:27:39 13.618 62.1 0.1521 0.5 2.52 0.6 0
23-03-07 03:22:39 13.738 60.9 0.1521 0.5 2.52 0.6 0
23-03-07 03:17:39 13.882 60.2 0.1521 1.01 3.02 0.6 0
23-03-07 03:12:39 13.762 59.8 0.1528 0.5 2.01 0.6 0
23-03-07 03:07:39 13.834 58.8 0.1521 1.01 2.52 0.6 0
23-03-07 03:02:39 13.858 57.9 0.1528 0 3.02 0.6 0
23-03-07 02:57:39 14.098 56.1 0.1521 1.01 3.02 0.6 0
23-03-07 02:52:39 14.146 55.5 0.1528 0.5 2.52 0.6 0
23-03-07 02:47:39 14.314 54.5 0.1521 0.5 3.02 0.6 0
23-03-07 02:42:39 14.361 54 0.1528 1.01 3.52 0.6 0
23-03-07 02:37:39 14.242 53.4 0.1528 0 2.52 0.6 0
23-03-07 02:32:39 14.481 52.8 0.1528 0.5 2.01 0.6 0
23-03-07 02:27:39 14.649 51.6 0.1521 1.01 3.02 0.6 0
23-03-07 02:22:39 14.96 51.3 0.1528 1.01 3.52 0.6 0
23-03-07 02:17:39 14.864 50.7 0.1528 1.01 3.02 0.6 0
23-03-07 02:12:39 15.031 50.1 0.1528 1.51 3.52 0.6 0
23-03-07 02:07:39 14.936 50.3 0.1528 1.01 3.02 0.6 0
23-03-07 02:02:39 15.079 49.3 0.1528 1.51 3.02 0.6 0
23-03-07 01:57:39 14.912 49.6 0.1528 1.01 4.03 0.6 0
23-03-07 01:52:39 15.223 49.2 0.1528 1.51 4.53 0.6 0
23-03-07 01:47:39 15.079 49.1 0.1528 1.01 4.03 0.6 0
23-03-07 01:42:39 15.055 49.3 0.1528 1.01 4.53 0.6 0
23-03-07 01:37:39 14.864 49.4 0.1528 1.01 4.03 0.6 0
23-03-07 01:32:39 15.055 48.2 0.1528 1.01 3.02 0.6 0
23-03-07 01:27:39 15.294 47.4 0.1528 0.5 2.52 0.6 0
23-03-07 01:22:39 15.461 47.3 0.1528 1.01 3.52 0.6 0
23-03-07 01:17:39 15.199 47.6 0.1535 0.5 2.52 0.6 0
23-03-07 01:12:39 15.223 47.3 0.1528 0.5 3.02 0.6 0
23-03-07 01:07:39 15.342 46.9 0.1528 1.01 3.52 0.6 0
23-03-07 01:02:39 15.055 47.5 0.1528 0 2.01 0.6 0
23-03-07 00:57:39 14.912 47.8 0.1528 0 1.01 0.6 0
23-03-07 00:52:39 15.103 47.1 0.1528 0 1.51 0.6 0
23-03-07 00:47:39 15.39 46.7 0.1528 0.5 2.52 0.6 0
23-03-07 00:42:39 15.151 46.8 0.1528 0.5 2.01 0.6 0
23-03-07 00:37:39 14.912 47.2 0.1528 0 1.51 0.6 0
23-03-07 00:32:39 14.697 47.1 0.1528 0 1.01 0.6 0
23-03-07 00:27:39 15.055 46.2 0.1528 0 2.01 0.6 0
23-03-07 00:22:39 15.27 45.2 0.1528 0 2.01 0.6 0
23-03-07 00:17:39 15.438 44.8 0.1528 0 2.01 0.6 0
23-03-07 00:12:39 15.843 44 0.1528 0.5 3.52 0.6 0
23-03-07 00:07:39 15.939 43.7 0.1528 1.01 2.52 0.6 0
23-03-07 00:02:39 15.986 43.5 0.1528 0.5 3.52 0.6 0
23-03-06 23:57:39 15.963 43.4 0.1528 0.5 2.01 0.6 0
23-03-06 23:52:39 16.082 43.6 0.1528 0.5 2.52 0.6 0
23-03-06 23:47:39 15.891 43.7 0.1528 0 2.52 0.6 0
23-03-06 23:42:39 16.177 43.2 0.1528 0.5 2.52 0.6 0
23-03-06 23:37:39 16.01 43.3 0.1528 0.5 2.52 0.6 0
23-03-06 23:32:39 16.082 43.3 0.1528 0.5 2.52 0.6 0
23-03-06 23:27:39 16.106 42.8 0.1528 0.5 2.01 0.6 0
23-03-06 23:22:39 16.63 41.9 0.1528 1.01 3.02 0.6 0
23-03-06 23:17:39 16.654 41.9 0.1528 1.01 3.52 0.6 0
23-03-06 23:12:39 16.606 41.6 0.1528 0.5 2.52 0.6 0
23-03-06 23:07:39 16.844 41.1 0.1535 1.51 3.52 0.6 0
23-03-06 23:02:39 16.892 40.8 0.1528 1.01 3.02 0.6 0
23-03-06 22:57:39 17.106 40.2 0.1528 1.01 4.03 0.6 0
23-03-06 22:52:39 17.201 39.8 0.1528 1.51 3.52 0.6 0
23-03-06 22:47:39 17.368 39.3 0.1528 1.51 3.52 0.6 0
23-03-06 22:42:39 17.51 38.7 0.1528 1.51 3.52 0.6 0
23-03-06 22:37:39 17.558 38.7 0.1535 1.51 3.52 0.6 0
23-03-06 22:32:39 17.558 38.2 0.1535 1.01 3.52 0.6 0
23-03-06 22:27:39 17.629 37.9 0.1535 1.01 3.52 0.6 0
23-03-06 22:22:39 17.582 37.9 0.1535 1.01 4.03 0.6 0
23-03-06 22:17:39 17.558 38.3 0.1543 0.5 3.52 0.6 0
23-03-06 22:12:39 17.558 38.3 0.1528 1.01 3.02 0.6 0
23-03-06 22:07:39 17.915 37.6 0.1528 2.01 5.54 0.6 0
23-03-06 22:02:39 17.843 37.7 0.1535 1.51 4.03 0.6 0
23-03-06 21:57:39 17.962 37.3 0.1528 1.51 5.03 0.6 0
23-03-06 21:52:39 18.081 36.9 0.1528 2.01 4.53 0.6 0
23-03-06 21:47:39 17.915 37 0.1528 1.51 4.53 0.6 0
23-03-06 21:42:39 18.152 36.6 0.1528 2.01 4.53 0.6 0
23-03-06 21:37:39 18.081 36.7 0.1528 2.01 5.03 0.6 0
23-03-06 21:32:39 18.224 36.1 0.1535 2.01 5.03 0.6 0
23-03-06 21:27:39 18.509 35.7 0.1528 2.52 5.03 0.6 0
23-03-06 21:22:39 18.485 35.6 0.1535 2.01 4.53 0.6 0
23-03-06 21:17:39 18.747 35 0.1535 2.52 5.03 0.6 0
23-03-06 21:12:39 18.771 34.9 0.1535 2.52 4.53 0.6 0
23-03-06 21:07:39 18.794 34.7 0.1543 2.01 5.03 0.6 0
23-03-06 21:02:39 18.794 34.7 0.1528 2.01 5.03 0.6 0
23-03-06 20:57:39 18.913 34.5 0.1535 2.01 4.53 0.6 0
23-03-06 20:52:39 19.056 34.4 0.1535 2.52 6.04 0.6 0
23-03-06 20:47:39 19.032 34.8 0.1528 2.01 5.03 0.6 0
23-03-06 20:42:39 19.032 35.1 0.1528 2.01 4.53 0.6 0
23-03-06 20:37:39 19.103 35.1 0.1528 2.01 4.53 0.6 0
23-03-06 20:32:39 19.103 35.1 0.1528 1.51 4.53 0.6 0
23-03-06 20:27:39 19.151 35.4 0.1535 1.51 4.53 0.6 0
23-03-06 20:22:39 19.341 35.3 0.1521 2.52 5.54 0.6 0
23-03-06 20:17:39 19.222 35.7 0.1528 2.01 4.53 0.6 0
23-03-06 20:12:39 19.246 35.8 0.1528 2.01 4.53 0.6 0
23-03-06 20:07:39 19.175 36.2 0.1535 1.51 3.52 0.6 0
23-03-06 20:02:39 19.318 35.8 0.1521 1.51 4.03 0.6 0
23-03-06 19:57:39 19.413 35.7 0.1543 1.51 4.03 0.6 0
23-03-06 19:52:39 19.555 35.3 0.1528 1.51 3.52 0.6 0
23-03-06 19:47:39 19.698 35.2 0.1528 1.51 4.53 0.6 0
23-03-06 19:42:39 19.841 35 0.1535 2.01 4.53 0.6 0
23-03-06 19:37:39 19.341 35.8 0.1528 1.01 3.02 0.6 0
23-03-06 19:32:39 19.222 35.8 0.1521 0.5 3.02 0.6 0
23-03-06 19:27:39 19.555 35.1 0.1528 1.01 4.03 0.6 0
23-03-06 19:22:39 19.698 34.8 0.1528 1.01 3.52 0.6 0
23-03-06 19:17:39 19.841 34.5 0.1535 1.01 3.02 0.6 0
23-03-06 19:12:39 20.103 34 0.1528 1.01 4.03 0.6 0
23-03-06 19:07:39 20.126 33.6 0.1528 1.01 3.52 0.6 0
23-03-06 19:02:39 20.317 33.2 0.1528 1.01 3.02 0.6 0
23-03-06 18:57:39 20.603 32.4 0.1521 1.51 3.02 0.6 0
23-03-06 18:52:39 20.722 32.3 0.1528 1.01 3.52 0.6 0
23-03-06 18:47:39 21.032 31.8 0.1528 1.01 3.02 0.6 0
23-03-06 18:42:39 21.246 31.9 0.1528 2.01 4.53 4.4 0
23-03-06 18:37:39 21.056 32.4 0.1521 1.01 4.03 3.1 0
23-03-06 18:32:39 21.39 32.3 0.1528 1.51 3.52 8.1 0
23-03-06 18:27:39 21.724 31.8 0.1521 2.01 5.03 14.4 0
23-03-06 18:22:39 21.795 31.2 0.1521 1.01 4.03 24.4 0
23-03-06 18:17:39 22.034 30.5 0.1521 1.51 4.03 31.9 0
23-03-06 18:12:39 22.298 29.8 0.1528 2.01 5.03 51.9 0
23-03-06 18:07:39 22.489 29.6 0.1535 2.01 6.54 68.1 0
23-03-06 18:02:39 22.609 30.4 0.1543 3.02 5.54 79.4 0
23-03-06 17:57:39 22.896 30.1 0.1528 2.52 6.54 104.4 0
23-03-06 17:52:39 22.944 29.7 0.1543 3.02 6.04 124.4 0
23-03-06 17:47:39 23.16 30.2 0.1543 2.52 6.04 136.9 0
23-03-06 17:42:39 23.304 30.2 0.155 2.52 6.04 158.1 0
23-03-06 17:37:39 23.376 30.2 0.1535 3.02 5.54 175.6 0
23-03-06 17:32:39 23.713 29.6 0.1543 2.52 5.54 196.9 0
23-03-06 17:27:39 23.569 28.8 0.1543 3.02 6.04 219.4 0
23-03-06 17:22:39 23.905 28.1 0.1535 2.52 5.03 239.4 0
23-03-06 17:17:39 23.978 28.5 0.1535 2.52 6.04 251.9 0
23-03-06 17:12:39 24.146 28.5 0.1543 2.52 6.04 284.4 0
23-03-06 17:07:39 24.195 28.9 0.1535 3.02 6.54 309.4 0
23-03-06 17:02:39 24.798 28.4 0.155 2.01 4.53 333.1 0
23-03-06 16:57:39 24.219 28.8 0.1535 3.02 7.05 353.1 0
23-03-06 16:52:39 24.847 29.9 0.1528 3.02 6.04 371.9 0
23-03-06 16:47:39 24.968 30 0.1535 3.02 6.54 406.9 0
23-03-06 16:42:39 24.871 30.1 0.1543 2.52 6.04 424.4 0
23-03-06 16:37:39 24.436 30.6 0.1543 3.52 6.54 450.6 0
23-03-06 16:32:39 24.702 30.3 0.1543 3.02 7.05 450.6 0
23-03-06 16:27:39 25.404 30.1 0.1535 2.01 4.53 489.4 0
23-03-06 16:22:39 24.581 31.1 0.1543 3.52 6.54 501.9 0
23-03-06 16:17:39 25.331 30.5 0.1528 2.52 5.03 513.1 0
23-03-06 16:12:39 24.774 30.7 0.1543 2.52 6.54 505.6 0
23-03-06 16:07:39 24.774 30.4 0.1535 3.52 6.54 533.1 0
23-03-06 16:02:39 25.234 30.7 0.1543 3.02 6.04 566.9 0
23-03-06 15:57:39 24.798 30.8 0.1535 3.52 7.05 570.6 0
23-03-06 15:52:39 25.283 30 0.1535 3.02 7.05 594.4 0
23-03-06 15:47:39 25.477 31 0.1543 3.02 7.55 605.6 0
23-03-06 15:42:39 25.525 31.1 0.1528 3.02 7.05 658.1 0
23-03-06 15:37:39 25.04 31.7 0.1528 3.52 7.55 678.1 0
23-03-06 15:32:39 25.04 31.4 0.1535 3.52 7.05 703.1 0
23-03-06 15:27:39 25.331 30.7 0.1528 3.02 6.54 708.1 0
23-03-06 15:22:39 26.012 31.4 0.1535 2.52 7.05 711.9 0
23-03-06 15:17:39 26.012 32.3 0.1528 2.52 6.04 744.4 0
23-03-06 15:12:39 25.817 31.6 0.1543 2.52 5.54 785.6 0
23-03-06 15:07:39 25.72 32.4 0.1528 3.52 8.56 714.4 0
23-03-06 15:02:39 26.622 32 0.1535 2.52 5.54 696.9 0
23-03-06 14:57:39 26.402 31.8 0.1528 2.52 6.54 854.4 0
23-03-06 14:52:39 25.72 32 0.1543 3.02 7.55 859.4 0
23-03-06 14:47:39 26.012 32 0.1543 2.52 6.54 806.9 0
23-03-06 14:42:39 25.695 31.9 0.1535 3.02 6.04 371.9 0
23-03-06 14:37:39 26.061 31.7 0.1543 2.52 7.05 869.4 0
23-03-06 14:32:39 25.939 32.3 0.1535 2.52 6.04 868.1 0
23-03-06 14:27:39 25.574 32.5 0.1535 3.52 7.05 889.4 0
23-03-06 14:22:39 26.402 31.9 0.1543 2.01 5.03 849.4 0
23-03-06 14:17:39 26.182 30.9 0.1535 2.52 7.05 889.4 0
23-03-06 14:12:39 26.378 33.7 0.1521 2.01 5.03 943.1 0
23-03-06 14:07:39 26.72 32.6 0.1543 2.52 6.04 944.4 0
23-03-06 14:02:39 26.012 33.4 0.1535 2.52 6.04 975.6 0
23-03-06 13:57:39 26.012 34.4 0.1535 2.52 5.54 989.4 0
23-03-06 13:52:39 26.012 33.8 0.1543 3.02 6.04 1033.1 0
23-03-06 13:47:39 25.574 34.7 0.1543 3.02 6.04 1015.6 0
23-03-06 13:42:39 25.793 34.1 0.1543 2.52 5.54 691.9 0
23-03-06 13:37:39 26.036 33.7 0.1543 2.01 4.03 1049.4 0
23-03-06 13:32:39 25.817 35.4 0.1535 2.52 5.03 1045.6 0
23-03-06 13:27:39 25.525 34.2 0.1543 2.01 6.04 660.6 0
23-03-06 13:22:39 25.258 35.8 0.1535 1.51 4.53 939.4 0
23-03-06 13:17:39 24.605 35.9 0.1543 2.52 5.54 1194.4 0
23-03-06 13:12:39 25.647 35.2 0.1543 2.01 5.54 1146.9 0
23-03-06 13:07:39 25.72 34.4 0.1543 2.01 6.04 738.1 0
23-03-06 13:02:39 24.702 36.1 0.1535 3.02 6.54 909.4 0
23-03-06 12:57:39 25.89 35 0.1543 2.52 6.04 1103.1 0
23-03-06 12:52:39 24.919 36.5 0.1535 2.52 5.54 1063.1 0
23-03-06 12:47:39 24.219 36.2 0.1535 2.52 5.54 460.6 0
23-03-06 12:42:39 25.21 36.1 0.1535 2.52 5.03 1094.4 0
23-03-06 12:37:39 23.978 36 0.1543 2.52 7.05 929.4 0
23-03-06 12:32:39 24.944 37 0.1535 2.01 5.54 1038.1 0
23-03-06 12:27:39 23.424 38.1 0.155 3.02 6.04 1093.1 0
23-03-06 12:22:39 23.593 38 0.1528 2.01 5.03 449.4 0
23-03-06 12:17:39 23.28 38.4 0.1528 1.51 5.03 685.6 0
23-03-06 12:12:39 24.122 37.3 0.1535 1.51 5.03 564.4 0
23-03-06 12:07:39 23.208 39.2 0.1535 2.01 6.04 345.6 0
23-03-06 12:02:39 24.823 36.7 0.1557 2.01 5.03 1005.6 0
23-03-06 11:57:39 22.753 39.4 0.155 3.02 6.04 775.6 0
23-03-06 11:52:39 24.219 39.6 0.1535 1.51 5.03 1185.6 0
23-03-06 11:47:39 22.729 39.8 0.1528 2.52 5.54 330.6 0
23-03-06 11:42:39 23.136 39.5 0.1535 1.01 5.03 310.6 0
23-03-06 11:37:39 23.112 41.9 0.1535 2.52 6.04 359.4 0
23-03-06 11:32:39 22.681 41.1 0.1535 2.01 5.03 279.4 0
23-03-06 11:27:39 22.561 42.6 0.1535 3.02 6.54 484.4 0
23-03-06 11:22:39 24.026 39.4 0.1528 1.51 3.52 861.9 0
23-03-06 11:17:39 24.195 38.9 0.1543 2.52 6.04 1106.9 0
23-03-06 11:12:39 23.304 40.8 0.1543 2.52 6.54 1003.1 0
23-03-06 11:07:39 23.713 39.8 0.1528 2.01 5.54 1110.6 0
23-03-06 11:02:39 22.92 41.6 0.1535 2.52 5.03 1023.1 0
23-03-06 10:57:39 23.93 40.3 0.1528 2.01 5.03 1016.9 0
23-03-06 10:52:39 22.872 40.9 0.1535 2.01 5.54 964.4 0
23-03-06 10:47:39 23.064 40.9 0.1528 2.52 6.04 930.6 0
23-03-06 10:42:39 23.497 41.7 0.1528 2.01 5.03 985.6 0
23-03-06 10:37:39 23.256 42.8 0.1521 2.52 5.54 920.6 0
23-03-06 10:32:39 23.328 42.8 0.1535 2.01 5.54 889.4 0
23-03-06 10:27:39 22.417 43.4 0.1535 2.01 6.54 860.6 0
23-03-06 10:22:39 23.232 43.4 0.1528 2.01 4.53 833.1 0
23-03-06 10:17:39 22.202 45.1 0.1535 2.01 6.54 820.6 0
23-03-06 10:12:39 21.939 45.6 0.1543 1.51 5.54 785.6 0
23-03-06 10:07:39 21.915 47.1 0.1521 2.01 5.54 785.6 0
23-03-06 10:02:39 21.819 46.5 0.1535 2.01 4.53 764.4 0
23-03-06 09:57:39 21.604 48.7 0.1514 2.52 5.54 746.9 0
23-03-06 09:52:39 21.772 46.2 0.1528 2.52 5.03 730.6 0
23-03-06 09:47:39 21.676 48.4 0.1514 2.52 6.04 706.9 0
23-03-06 09:42:39 21.987 46.3 0.1528 1.51 4.53 694.4 0
23-03-06 09:37:39 21.342 48 0.1528 3.02 7.55 679.4 0
23-03-06 09:32:39 21.366 47.9 0.1543 2.52 5.03 659.4 0
23-03-06 09:27:39 20.889 48.2 0.155 2.52 7.55 641.9 0
23-03-06 09:22:39 21.342 49.2 0.1543 2.01 5.03 634.4 0
23-03-06 09:17:39 20.698 49.7 0.1535 2.52 5.54 610.6 0
23-03-06 09:12:39 20.889 50.4 0.1528 2.01 5.03 370.6 0
23-03-06 09:07:39 20.507 50.9 0.1528 2.01 5.03 368.1 0
23-03-06 09:02:39 20.913 51.7 0.1521 2.01 4.53 231.9 0
23-03-06 08:57:39 20.817 50.7 0.1521 2.01 4.03 525.6 0
23-03-06 08:52:39 20.817 54.9 0.1528 0.5 3.02 494.4 0
23-03-06 08:47:39 20.317 54.8 0.1528 1.51 3.52 305.6 0
23-03-06 08:42:39 20.055 54.4 0.1521 1.01 4.53 440.6 0
23-03-06 08:37:39 20.031 55.9 0.1528 1.01 2.52 429.4 0
23-03-06 08:32:39 19.651 57.3 0.1528 1.01 5.03 413.1 0
23-03-06 08:27:39 19.246 57.6 0.1521 1.01 4.03 390.6 0
23-03-06 08:22:39 19.318 59.1 0.1521 0.5 2.52 369.4 0
23-03-06 08:17:39 19.08 59.5 0.1521 0.5 2.52 348.1 0
23-03-06 08:12:39 18.652 61.7 0.1521 0.5 2.52 329.4 0
23-03-06 08:07:39 18.343 61.7 0.1528 0.5 2.01 305.6 0
23-03-06 08:02:39 18.438 63.7 0.1521 0 2.01 284.4 0
23-03-06 07:57:39 17.653 64.8 0.1514 0.5 2.52 263.1 0
23-03-06 07:52:39 17.153 65.7 0.1521 0.5 3.02 241.9 0
23-03-06 07:47:39 16.963 67.1 0.1521 0.5 2.01 220.6 0
23-03-06 07:42:39 16.558 67.7 0.1521 0.5 2.01 195.6 0
23-03-06 07:37:39 16.106 69.2 0.1514 0.5 2.01 175.6 0
23-03-06 07:32:39 15.461 70.8 0.1528 1.01 4.03 153.1 0
23-03-06 07:27:39 14.29 73.8 0.1528 0 2.52 78.1 0
23-03-06 07:22:39 14.05 74.1 0.1528 0 1.01 48.1 0
23-03-06 07:17:39 14.218 73.8 0.1528 0 1.01 45.6 0
23-03-06 07:12:39 14.146 74.6 0.1528 0 0 74.4 0
23-03-06 07:07:39 13.762 74.9 0.1528 0 0 48.1 0
23-03-06 07:02:39 13.618 74.6 0.1528 0 0 34.4 0
23-03-06 06:57:39 13.81 74 0.1528 0 0 29.4 0
23-03-06 06:52:39 14.002 74.1 0.1528 0 2.52 25.6 0
23-03-06 06:47:39 13.762 75.5 0.1528 0 1.51 18.1 0
23-03-06 06:42:39 13.57 76.1 0.1528 0 1.51 11.9 0
23-03-06 06:37:39 13.137 77.5 0.1528 0 1.01 5.6 0
23-03-06 06:32:39 12.63 76.8 0.1528 0 0 3.1 0
23-03-06 06:27:39 12.92 76.4 0.1528 0 0.5 0.6 0
23-03-06 06:22:39 13.088 76.9 0.1528 0 1.01 0.6 0
23-03-06 06:17:39 12.703 76.6 0.1535 0 1.01 0.6 0
23-03-06 06:12:39 12.751 76.1 0.1535 0 0.5 0.6 0
23-03-06 06:07:39 12.823 76.1 0.1535 0 0.5 0.6 0
23-03-06 06:02:39 12.92 75.6 0.1535 0 1.01 0.6 0
23-03-06 05:57:39 12.92 75.3 0.1535 0 0.5 0.6 0
23-03-06 05:52:39 13.088 75.3 0.1535 0 1.51 0.6 0
23-03-06 05:47:39 13.257 74.4 0.1535 0 1.51 0.6 0
23-03-06 05:42:39 13.762 73.9 0.1535 0.5 2.01 0.6 0
23-03-06 05:37:39 13.762 74.5 0.1535 0.5 2.52 0.6 0
23-03-06 05:32:39 13.185 76.1 0.1535 0.5 2.52 0.6 0
23-03-06 05:27:39 12.992 76.3 0.1535 0.5 1.51 0.6 0
23-03-06 05:22:39 12.992 75.7 0.1535 0 1.01 0.6 0
23-03-06 05:17:39 13.112 76.4 0.1535 0 1.01 0.6 0
23-03-06 05:12:39 12.968 75.9 0.1535 0 1.51 0.6 0
23-03-06 05:07:39 13.064 75.4 0.1535 0 1.01 0.6 0
23-03-06 05:02:39 13.281 75.2 0.1535 0 2.01 0.6 0
23-03-06 04:57:39 13.522 74.8 0.1535 0 2.01 0.6 0
23-03-06 04:52:39 13.353 74.8 0.1535 0 2.01 0.6 0
23-03-06 04:47:39 13.497 73.8 0.1535 0 2.01 0.6 0
23-03-06 04:42:39 14.05 72.3 0.1535 0.5 2.52 0.6 0
23-03-06 04:37:39 14.17 72.2 0.1535 0.5 2.01 0.6 0
23-03-06 04:32:39 14.122 72 0.1535 0.5 2.01 0.6 0
23-03-06 04:27:39 14.337 71.8 0.1535 1.01 3.02 0.6 0
23-03-06 04:22:39 14.529 71.4 0.1535 1.51 4.03 0.6 0
23-03-06 04:17:39 14.433 71.6 0.1543 1.01 3.02 0.6 0
23-03-06 04:12:39 14.505 71.8 0.1535 1.01 3.52 0.6 0
23-03-06 04:07:39 14.194 71.8 0.1543 0.5 2.52 0.6 0
23-03-06 04:02:39 13.858 72.8 0.1535 0 1.01 0.6 0
23-03-06 03:57:39 13.906 72.4 0.1543 0 1.51 0.6 0
23-03-06 03:52:39 14.074 71.9 0.1535 0 1.51 0.6 0
23-03-06 03:47:39 14.122 72.1 0.1543 0 2.52 0.6 0
23-03-06 03:42:39 14.026 71.9 0.1543 0 2.01 0.6 0
23-03-06 03:37:39 14.002 72.9 0.1543 0.5 3.02 0.6 0
23-03-06 03:32:39 13.666 73.3 0.1543 0 2.52 0.6 0
23-03-06 03:27:39 13.642 72.5 0.1535 0 1.51 0.6 0
23-03-06 03:22:39 13.762 71.9 0.1543 0 1.51 0.6 0
23-03-06 03:17:39 13.786 72.1 0.1543 0 1.51 0.6 0
23-03-06 03:12:39 13.954 72 0.1543 0 1.51 0.6 0
23-03-06 03:07:39 13.978 71.6 0.1543 0 1.51 0.6 0
23-03-06 03:02:39 14.05 72.1 0.1543 0 1.51 0.6 0
23-03-06 02:57:39 13.882 71.5 0.1543 0 1.01 0.6 0
23-03-06 02:52:39 14.05 71.6 0.1543 0 2.01 0.6 0
23-03-06 02:47:39 13.762 71.1 0.1543 0 1.01 0.6 0
23-03-06 02:42:39 14.242 69.5 0.1543 0 0 0.6 0
23-03-06 02:37:39 14.601 68.6 0.1543 0 0.5 0.6 0
23-03-06 02:32:39 14.745 69.5 0.1543 0 1.51 0.6 0
23-03-06 02:27:39 14.385 69.8 0.1543 0 2.01 0.6 0
23-03-06 02:22:39 14.553 70.1 0.1543 0 1.01 0.6 0
23-03-06 02:17:39 14.337 70.8 0.1543 0 1.01 0.6 0
23-03-06 02:12:39 13.834 71.8 0.1543 0 0 0.6 0
23-03-06 02:07:39 13.497 71.1 0.1543 0 0 0.6 0
23-03-06 02:02:39 13.594 70.1 0.1543 0 0 0.6 0
23-03-06 01:57:39 13.978 68.5 0.1543 0 0 0.6 0
23-03-06 01:52:39 14.577 67.7 0.1543 0 0.5 0.6 0
23-03-06 01:47:39 14.385 68.3 0.1543 0 0 0.6 0
23-03-06 01:42:39 14.314 68.4 0.1543 0 0 0.6 0
23-03-06 01:37:39 14.242 67.6 0.1543 0 0 0.6 0
23-03-06 01:32:39 14.912 65.6 0.155 0 0 0.6 0
23-03-06 01:27:39 15.461 64.9 0.1543 0 1.51 0.6 0
23-03-06 01:22:39 15.414 64.7 0.1543 0 0.5 0.6 0
23-03-06 01:17:39 15.676 64.2 0.1543 0 2.01 0.6 0
23-03-06 01:12:39 16.034 64.7 0.1543 0.5 2.01 0.6 0
23-03-06 01:07:39 14.721 68.4 0.1543 0 1.01 0.6 0
23-03-06 01:02:39 14.433 68.5 0.1543 0 1.01 0.6 0
23-03-06 00:57:39 14.745 68.1 0.1543 0 0 0.6 0
23-03-06 00:52:39 14.242 69.9 0.1543 0 0 0.6 0
23-03-06 00:47:39 14.074 69.9 0.1543 0 0 0.6 0
23-03-06 00:42:39 13.81 69.8 0.1543 0 0 0.6 0
23-03-06 00:37:39 13.81 68.3 0.1543 0 0 0.6 0
23-03-06 00:32:39 14.17 67.1 0.1543 0 0 0.6 0
23-03-06 00:27:39 14.409 66.5 0.1543 0 0 0.6 0
23-03-06 00:22:39 14.745 65 0.1543 0 0 0.6 0
23-03-06 00:17:39 15.247 63.7 0.1543 0 0 0.6 0
23-03-06 00:12:39 15.199 63.6 0.155 0 0.5 0.6 0
23-03-06 00:07:39 15.557 62 0.1543 0 0 0.6 0
23-03-06 00:02:39 16.106 60.9 0.1543 0 0 0.6 0
23-03-05 23:57:39 16.606 59.7 0.155 0 1.01 0.6 0
23-03-05 23:52:39 16.868 59.9 0.155 0 2.52 0.6 0
23-03-05 23:47:39 17.011 59.6 0.1543 0.5 2.52 0.6 0
23-03-05 23:42:39 16.82 59.4 0.1543 0 3.02 0.6 0
23-03-05 23:37:39 16.868 58.6 0.155 0 0.5 0.6 0
23-03-05 23:32:39 16.963 57.7 0.155 0 0.5 0.6 0
23-03-05 23:27:39 17.225 56.8 0.155 0 1.01 0.6 0
23-03-05 23:22:39 17.653 55.7 0.155 0.5 3.02 0.6 0
23-03-05 23:17:39 17.534 56 0.155 0.5 3.52 0.6 0
23-03-05 23:12:39 17.819 54.5 0.155 0 2.01 0.6 0
23-03-05 23:07:39 18.224 53.7 0.155 0.5 3.02 0.6 0
23-03-05 23:02:39 18.271 53.5 0.155 1.01 3.02 0.6 0
23-03-05 22:57:39 17.915 55 0.155 0.5 2.52 0.6 0
23-03-05 22:52:39 18.271 53.7 0.155 0.5 3.02 0.6 0
23-03-05 22:47:39 18.224 53.9 0.155 0.5 2.52 0.6 0
23-03-05 22:42:39 18.247 53.9 0.155 0.5 3.02 0.6 0
23-03-05 22:37:39 18.39 54.2 0.155 1.01 3.02 0.6 0
23-03-05 22:32:39 17.962 54.9 0.155 0 2.52 0.6 0
23-03-05 22:27:39 18.247 54.4 0.1543 1.01 3.52 0.6 0
23-03-05 22:22:39 18.105 54.9 0.1543 1.01 3.02 0.6 0
23-03-05 22:17:39 17.938 55.1 0.155 0.5 3.52 0.6 0
23-03-05 22:12:39 18.129 54.6 0.155 1.01 3.02 0.6 0
23-03-05 22:07:39 18.152 54.7 0.1543 1.01 3.52 0.6 0
23-03-05 22:02:39 18.129 54.9 0.155 1.01 3.52 0.6 0
23-03-05 21:57:39 18.057 55.1 0.1543 1.01 4.03 0.6 0
23-03-05 21:52:39 18.105 55 0.155 1.01 3.02 0.6 0
23-03-05 21:47:39 18.129 55 0.1543 1.01 4.03 0.6 0
23-03-05 21:42:39 17.986 55.2 0.155 0.5 3.02 0.6 0
23-03-05 21:37:39 18.319 54.4 0.155 2.01 4.03 0.6 0
23-03-05 21:32:39 18.224 54.4 0.155 1.01 3.52 0.6 0
23-03-05 21:27:39 18.366 53.9 0.155 1.51 3.52 0.6 0
23-03-05 21:22:39 18.509 53.3 0.155 1.51 5.03 0.6 0
23-03-05 21:17:39 18.675 52.8 0.1557 2.01 4.03 0.6 0
23-03-05 21:12:39 18.604 53 0.155 1.51 4.03 0.6 0
23-03-05 21:07:39 18.628 52.6 0.155 1.51 4.53 0.6 0
23-03-05 21:02:39 18.723 52.4 0.155 1.51 3.52 0.6 0
23-03-05 20:57:39 18.652 52.4 0.1543 1.51 3.52 0.6 0
23-03-05 20:52:39 18.818 51.9 0.155 2.01 4.03 0.6 0
23-03-05 20:47:39 18.675 52.6 0.155 1.01 4.03 0.6 0
23-03-05 20:42:39 18.866 52 0.1543 1.51 3.02 0.6 0
23-03-05 20:37:39 18.985 51.7 0.1543 1.51 3.52 0.6 0
23-03-05 20:32:39 19.032 51.7 0.155 1.51 3.52 0.6 0
23-03-05 20:27:39 18.889 52.2 0.155 1.01 3.52 0.6 0
23-03-05 20:22:39 18.818 52.5 0.1543 0.5 3.02 0.6 0
23-03-05 20:17:39 18.866 51.8 0.1543 0.5 2.52 0.6 0
23-03-05 20:12:39 19.127 51 0.1543 1.01 4.03 0.6 0
23-03-05 20:07:39 19.27 50.9 0.1543 1.01 3.52 0.6 0
23-03-05 20:02:39 19.341 50.3 0.155 1.01 3.02 0.6 0
23-03-05 19:57:39 19.532 49.7 0.155 1.51 3.52 0.6 0
23-03-05 19:52:39 19.651 49.3 0.1543 2.01 4.03 0.6 0
23-03-05 19:47:39 19.674 49.2 0.1543 1.51 4.53 0.6 0
23-03-05 19:42:39 19.817 48.4 0.155 2.01 4.03 0.6 0
23-03-05 19:37:39 19.77 48.3 0.1543 1.51 6.04 0.6 0
23-03-05 19:32:39 19.865 47.8 0.1543 1.51 4.53 0.6 0
23-03-05 19:27:39 19.984 47.4 0.1543 2.01 4.53 0.6 0
23-03-05 19:22:39 19.793 47 0.1543 1.01 4.03 0.6 0
23-03-05 19:17:39 19.722 46 0.1543 0.5 2.52 0.6 0
23-03-05 19:12:39 20.055 44.9 0.1543 1.01 3.52 0.6 0
23-03-05 19:07:39 20.341 44.1 0.155 2.01 4.53 0.6 0
23-03-05 19:02:39 20.222 44.1 0.1543 1.01 3.52 0.6 0
23-03-05 18:57:39 20.484 43.5 0.1543 1.51 4.03 0.6 0
23-03-05 18:52:39 20.579 43.5 0.1535 1.01 3.02 0.6 0
23-03-05 18:47:39 20.77 42.8 0.1535 1.01 4.53 0.6 0
23-03-05 18:42:39 21.056 42.4 0.1535 1.51 3.52 1.9 0
23-03-05 18:37:39 21.413 42 0.1535 2.01 5.03 3.1 0
23-03-05 18:32:39 21.246 42.6 0.1535 1.01 3.02 6.9 0
23-03-05 18:27:39 21.509 41.8 0.1535 1.51 4.53 10.6 0
23-03-05 18:22:39 21.652 41.3 0.1535 2.52 6.04 18.1 0
23-03-05 18:17:39 21.939 40.6 0.1543 2.52 4.53 24.4 0
23-03-05 18:12:39 22.226 40.2 0.1557 2.01 4.53 41.9 0
23-03-05 18:07:39 22.489 40.3 0.1543 2.01 5.03 60.6 0
23-03-05 18:02:39 22.681 39.8 0.1543 1.51 4.03 74.4 0
23-03-05 17:57:39 22.992 39.2 0.1543 2.01 5.03 90.6 0
23-03-05 17:52:39 23.136 38.1 0.155 2.01 5.03 109.4 0
23-03-05 17:47:39 23.376 37.5 0.155 1.51 4.53 131.9 0
23-03-05 17:42:39 23.497 37.2 0.155 2.01 5.03 146.9 0
23-03-05 17:37:39 23.424 36.8 0.155 2.52 4.53 186.9 0
23-03-05 17:32:39 23.424 36.5 0.1557 2.01 5.03 114.4 0
23-03-05 17:27:39 23.857 36.4 0.155 2.52 6.04 201.9 0
23-03-05 17:22:39 23.978 36.6 0.155 2.52 5.03 240.6 0
23-03-05 17:17:39 23.93 36.4 0.155 2.52 4.53 243.1 0
23-03-05 17:12:39 24.605 35.9 0.1557 2.01 5.03 328.1 0
23-03-05 17:07:39 24.122 35.9 0.1557 2.52 6.04 334.4 0
23-03-05 17:02:39 23.545 37 0.1543 2.01 5.03 170.6 0
23-03-05 16:57:39 23.545 37.6 0.1543 2.01 4.53 138.1 0
23-03-05 16:52:39 23.713 36.9 0.155 2.01 5.54 126.9 0
23-03-05 16:47:39 24.726 35.1 0.155 2.52 6.04 160.6 0
23-03-05 16:42:39 25.574 35.1 0.1557 2.52 6.04 473.1 0
23-03-05 16:37:39 25.404 35.6 0.1543 2.52 6.04 510.6 0
23-03-05 16:32:39 24.992 35.4 0.155 2.52 6.04 498.1 0
23-03-05 16:27:39 26.134 34.9 0.1543 1.51 3.52 500.6 0
23-03-05 16:22:39 24.919 34.9 0.1557 3.02 6.04 566.9 0
23-03-05 16:17:39 25.137 35.6 0.1557 2.01 5.54 621.9 0
23-03-05 16:12:39 25.355 35 0.1557 2.52 5.54 610.6 0
23-03-05 16:07:39 25.453 35.7 0.155 2.01 5.54 679.4 0
23-03-05 16:02:39 24.871 36.4 0.1557 2.52 6.54 465.6 0
23-03-05 15:57:39 24.677 36.6 0.1564 1.51 3.52 510.6 0
23-03-05 15:52:39 23.785 38 0.1557 2.52 5.54 261.9 0
23-03-05 15:47:39 23.978 37.4 0.155 2.01 4.53 178.1 0
23-03-05 15:42:39 25.137 35.7 0.155 2.01 5.54 215.6 0
23-03-05 15:37:39 25.866 34.5 0.1557 2.52 5.54 529.4 0
23-03-05 15:32:39 26.134 35.2 0.1557 1.51 3.52 786.9 0
23-03-05 15:27:39 25.21 36.1 0.1557 2.01 6.04 796.9 0
23-03-05 15:22:39 25.477 35 0.1557 2.01 5.03 234.4 0
23-03-05 15:17:39 26.598 35.8 0.1564 2.01 4.53 814.4 0
23-03-05 15:12:39 26.109 35.9 0.1557 2.52 6.04 856.9 0
23-03-05 15:07:39 25.671 35.2 0.1557 2.01 5.03 844.4 0
23-03-05 15:02:39 25.793 36.7 0.1557 2.52 6.04 826.9 0
23-03-05 14:57:39 25.453 36.1 0.155 2.01 5.54 846.9 0
23-03-05 14:52:39 25.089 37.1 0.155 2.52 5.03 859.4 0
23-03-05 14:47:39 25.793 37.6 0.1557 2.52 5.54 861.9 0
23-03-05 14:42:39 25.695 37.4 0.1557 2.01 5.54 894.4 0
23-03-05 14:37:39 25.428 38.1 0.1557 2.01 6.04 896.9 0
23-03-05 14:32:39 25.501 37.3 0.1557 2.52 4.53 878.1 0
23-03-05 14:27:39 24.75 38.9 0.1557 2.01 5.03 904.4 0
23-03-05 14:22:39 25.841 37.8 0.155 2.01 4.53 930.6 0
23-03-05 14:17:39 25.113 38.8 0.155 2.01 5.03 928.1 0
23-03-05 14:12:39 24.895 38.6 0.1557 2.01 6.04 946.9 0
23-03-05 14:07:39 25.307 39.9 0.1557 2.01 5.54 994.4 0
23-03-05 14:02:39 24.774 40.8 0.1557 2.01 4.53 1098.1 0
23-03-05 13:57:39 24.436 40.8 0.155 2.01 5.54 811.9 0
23-03-05 13:52:39 24.919 42.1 0.155 2.01 4.03 1076.9 0
23-03-05 13:47:39 24.315 42.2 0.155 1.51 4.03 445.6 0
23-03-05 13:42:39 23.809 42.7 0.155 1.51 4.03 509.4 0
23-03-05 13:37:39 23.809 42.1 0.1557 2.01 4.53 484.4 0
23-03-05 13:32:39 23.954 41.8 0.155 1.51 6.04 488.1 0
23-03-05 13:27:39 23.232 43.6 0.1557 2.01 4.53 461.9 0
23-03-05 13:22:39 23.448 43.1 0.155 1.01 3.52 389.4 0
23-03-05 13:17:39 23.352 43.2 0.155 2.01 5.54 431.9 0
23-03-05 13:12:39 24.074 44 0.1557 1.51 5.03 405.6 0
23-03-05 13:07:39 23.472 43.6 0.155 2.01 4.53 886.9 0
23-03-05 13:02:39 23.761 43 0.155 3.02 5.54 553.1 0
23-03-05 12:57:39 24.774 42.6 0.1557 3.02 7.05 681.9 0
23-03-05 12:52:39 24.219 44.6 0.1543 2.01 5.03 1253.1 0
23-03-05 12:47:39 23.545 43 0.1543 2.52 5.54 278.1 0
23-03-05 12:42:39 23.665 43.9 0.155 2.01 5.54 1121.9 0
23-03-05 12:37:39 24.677 43 0.155 2.01 5.03 695.6 0
23-03-05 12:32:39 23.93 44.3 0.1557 2.52 5.54 1064.4 0
23-03-05 12:27:39 24.823 41.1 0.155 2.01 5.03 1079.4 0
23-03-05 12:22:39 24.968 42.8 0.155 2.52 6.54 1009.4 0
23-03-05 12:17:39 24.291 42.5 0.155 2.52 5.03 993.1 0
23-03-05 12:12:39 25.21 41.4 0.1528 1.51 4.03 800.6 0
23-03-05 12:07:39 24.557 44.2 0.1543 2.01 5.03 1115.6 0
23-03-05 12:02:39 23.064 45.1 0.1543 2.52 5.03 975.6 0
23-03-05 11:57:39 22.609 46.4 0.1535 2.01 4.03 329.4 0
23-03-05 11:52:39 22.681 44.5 0.1543 2.01 6.04 449.4 0
23-03-05 11:47:39 23.16 43.4 0.1543 2.01 5.54 1133.1 0
23-03-05 11:42:39 22.154 47.8 0.1543 2.01 6.04 949.4 0
23-03-05 11:37:39 23.016 43.9 0.1535 1.51 4.53 326.9 0
23-03-05 11:32:39 24.508 44.6 0.1543 2.01 5.54 1059.4 0
23-03-05 11:27:39 23.617 45.8 0.1557 2.01 6.54 1166.9 0
23-03-05 11:22:39 23.04 48 0.155 1.51 5.03 1170.6 0
23-03-05 11:17:39 22.681 46.8 0.1535 2.01 6.04 618.1 0
23-03-05 11:12:39 23.593 46.6 0.155 2.01 4.53 1135.6 0
23-03-05 11:07:39 22.944 45.3 0.1543 2.01 5.03 1034.4 0
23-03-05 11:02:39 23.713 47.8 0.1535 2.01 4.53 996.9 0
23-03-05 10:57:39 23.256 46.8 0.1543 1.51 4.53 1004.4 0
23-03-05 10:52:39 23.232 47.4 0.1543 2.01 4.53 995.6 0
23-03-05 10:47:39 22.034 49.8 0.155 2.52 4.53 1026.9 0
23-03-05 10:42:39 20.936 50.7 0.1543 2.01 5.54 274.4 0
23-03-05 10:37:39 23.184 47.8 0.155 1.51 4.53 1023.1 0
23-03-05 10:32:39 21.604 49.2 0.1543 2.01 5.54 619.4 0
23-03-05 10:27:39 23.136 49.3 0.1535 1.51 4.03 910.6 0
23-03-05 10:22:39 22.13 50.7 0.1535 2.01 5.03 916.9 0
23-03-05 10:17:39 23.064 49.7 0.1535 2.01 4.53 881.9 0
23-03-05 10:12:39 22.393 49.1 0.1543 2.01 5.54 864.4 0
23-03-05 10:07:39 22.585 50.5 0.1535 2.01 5.54 888.1 0
23-03-05 10:02:39 21.342 50.7 0.155 3.02 6.54 900.6 0
23-03-05 09:57:39 22.106 50.1 0.155 2.52 6.04 590.6 0
23-03-05 09:52:39 20.484 54.1 0.1535 2.52 6.04 851.9 0
23-03-05 09:47:39 19.912 53.4 0.1528 2.52 5.54 283.1 0
23-03-05 09:42:39 21.485 52.9 0.155 2.01 4.53 543.1 0
23-03-05 09:37:39 21.175 53.1 0.1543 2.01 5.03 325.6 0
23-03-05 09:32:39 21.032 54.1 0.1535 2.01 4.53 324.4 0
23-03-05 09:27:39 19.532 56 0.1543 2.52 4.53 316.9 0
23-03-05 09:22:39 21.175 53.7 0.1535 1.51 5.03 291.9 0
23-03-05 09:17:39 21.294 55.9 0.1535 0.5 2.52 710.6 0
23-03-05 09:12:39 20.341 55.9 0.1535 1.51 4.53 350.6 0
23-03-05 09:07:39 20.889 55.9 0.1535 1.51 5.03 613.1 0
23-03-05 09:02:39 19.294 58.3 0.155 1.51 3.02 450.6 0
23-03-05 08:57:39 19.318 59.4 0.1535 1.01 3.52 335.6 0
23-03-05 08:52:39 19.127 62 0.1528 1.01 3.52 248.1 0
23-03-05 08:47:39 19.127 61.7 0.1535 1.01 3.52 190.6 0
23-03-05 08:42:39 19.936 60.7 0.1535 1.51 4.53 455.6 0
23-03-05 08:37:39 20.055 62.9 0.1521 1.01 3.52 446.9 0
23-03-05 08:32:39 19.341 64.2 0.1535 1.51 3.52 414.4 0
23-03-05 08:27:39 19.199 63.9 0.1528 1.51 4.03 390.6 0
23-03-05 08:22:39 19.103 65 0.1521 0.5 3.02 370.6 0
23-03-05 08:17:39 18.985 65.9 0.1521 0.5 2.52 344.4 0
23-03-05 08:12:39 18.913 67.7 0.1528 0.5 2.52 324.4 0
23-03-05 08:07:39 18.414 68.3 0.1521 1.01 3.52 301.9 0
23-03-05 08:02:39 18.247 69.1 0.1521 0.5 3.02 280.6 0
23-03-05 07:57:39 17.843 70.6 0.1521 0.5 2.52 259.4 0
23-03-05 07:52:39 17.534 73 0.1521 0.5 2.52 239.4 0
23-03-05 07:47:39 17.13 74.4 0.1521 0 2.01 219.4 0
23-03-05 07:42:39 16.868 76 0.1521 0 2.01 199.4 0
23-03-05 07:37:39 16.415 77.6 0.1521 0 2.01 180.6 0
23-03-05 07:32:39 15.963 78.7 0.1521 0 2.01 160.6 0
23-03-05 07:27:39 15.485 80 0.1521 0.5 2.01 138.1 0
23-03-05 07:22:39 15.127 81.2 0.1528 0 2.01 118.1 0
23-03-05 07:17:39 14.673 83.2 0.1535 0.5 2.01 96.9 0
23-03-05 07:12:39 14.098 85.1 0.1535 0 1.51 81.9 0
23-03-05 07:07:39 13.473 86 0.1535 0 1.51 39.4 0
23-03-05 07:02:39 13.137 86.2 0.1535 0 1.01 31.9 0
23-03-05 06:57:39 13.04 86.8 0.1535 0 1.51 25.6 0
23-03-05 06:52:39 12.582 87 0.1535 0 1.01 19.4 0
23-03-05 06:47:39 12.171 86.9 0.1535 0 0 14.4 0
23-03-05 06:42:39 12.122 86.3 0.1535 0 0 8.1 0
23-03-05 06:37:39 12.509 86.4 0.1535 0 0 4.4 0
23-03-05 06:32:39 12.606 86 0.1535 0 0.5 1.9 0
23-03-05 06:27:39 12.63 85.7 0.1535 0 0.5 0.6 0
23-03-05 06:22:39 12.847 85.3 0.1535 0 0 0.6 0
23-03-05 06:17:39 13.064 85.3 0.1535 0 0.5 0.6 0
23-03-05 06:12:39 13.112 85.5 0.1535 0 1.51 0.6 0
23-03-05 06:07:39 12.92 85.6 0.1535 0 1.01 0.6 0
23-03-05 06:02:39 12.751 85.4 0.1535 0 0 0.6 0
23-03-05 05:57:39 12.823 84.8 0.1535 0 0 0.6 0
23-03-05 05:52:39 12.992 84.3 0.1543 0 0 0.6 0
23-03-05 05:47:39 13.305 84 0.1543 0 1.01 0.6 0
23-03-05 05:42:39 13.522 84.2 0.1543 0 1.01 0.6 0
23-03-05 05:37:39 13.546 83.8 0.1543 0 1.51 0.6 0
23-03-05 05:32:39 13.714 83.8 0.1543 0 2.01 0.6 0
23-03-05 05:27:39 13.666 83.5 0.1543 0 1.01 0.6 0
23-03-05 05:22:39 13.762 83.3 0.1543 0 1.01 0.6 0
23-03-05 05:17:39 13.882 82.6 0.1543 0 1.01 0.6 0
23-03-05 05:12:39 14.122 82.4 0.1543 0 1.01 0.6 0
23-03-05 05:07:39 14.218 82.5 0.1543 0 2.01 0.6 0
23-03-05 05:02:39 14.385 82.6 0.1543 0 2.01 0.6 0
23-03-05 04:57:39 14.242 83.5 0.1543 0 3.02 0.6 0
23-03-05 04:52:39 13.882 84.1 0.1543 0 1.51 0.6 0
23-03-05 04:47:39 13.738 84.3 0.1543 0 0.5 0.6 0
23-03-05 04:42:39 13.642 84.6 0.1543 0 0.5 0.6 0
23-03-05 04:37:39 13.497 84.4 0.1543 0 0.5 0.6 0
23-03-05 04:32:39 13.57 83.9 0.1543 0 0 0.6 0
23-03-05 04:27:39 13.738 83.7 0.1543 0 0 0.6 0
23-03-05 04:22:39 13.93 83.2 0.1543 0 1.01 0.6 0
23-03-05 04:17:39 14.098 83.1 0.1543 0 1.01 0.6 0
23-03-05 04:12:39 14.242 83.4 0.1543 0 1.01 0.6 0
23-03-05 04:07:39 14.122 84.6 0.1543 0 1.01 0.6 0
23-03-05 04:02:39 13.233 83.5 0.1543 0 0 0.6 0
23-03-05 03:57:39 13.473 82.4 0.1543 0 0 0.6 0
23-03-05 03:52:39 14.002 82 0.1543 0 0.5 0.6 0
23-03-05 03:47:39 14.433 81.8 0.1543 0 1.51 0.6 0
23-03-05 03:42:39 14.433 81.5 0.1543 0 0.5 0.6 0
23-03-05 03:37:39 14.745 81.3 0.1543 0 2.01 0.6 0
23-03-05 03:32:39 14.768 81.5 0.1543 0.5 4.03 0.6 0
23-03-05 03:27:39 14.816 81.4 0.155 0.5 2.52 0.6 0
23-03-05 03:22:39 14.888 81.4 0.155 1.01 3.02 0.6 0
23-03-05 03:17:39 14.673 82.9 0.155 1.01 3.52 0.6 0
23-03-05 03:12:39 14.529 82.9 0.155 1.01 2.52 0.6 0
23-03-05 03:07:39 14.433 82.9 0.155 0.5 3.02 0.6 0
23-03-05 03:02:39 14.457 83.2 0.155 0.5 3.02 0.6 0
23-03-05 02:57:39 14.337 83.4 0.155 0 1.51 0.6 0
23-03-05 02:52:39 14.242 84.5 0.155 0.5 2.52 0.6 0
23-03-05 02:47:39 13.233 86.3 0.155 0 1.51 0.6 0
23-03-05 02:42:39 12.944 85.3 0.155 0 0 0.6 0
23-03-05 02:37:39 12.944 85.3 0.155 0 0 0.6 0
23-03-05 02:32:39 13.088 85 0.155 0 0 0.6 0
23-03-05 02:27:39 13.233 84.7 0.155 0 0 0.6 0
23-03-05 02:22:39 13.305 84.2 0.155 0 0 0.6 0
23-03-05 02:17:39 13.185 84 0.155 0 0 0.6 0
23-03-05 02:12:39 13.161 83.4 0.155 0 0 0.6 0
23-03-05 02:07:39 13.185 82.5 0.155 0 0 0.6 0
23-03-05 02:02:39 13.497 81.8 0.155 0 0 0.6 0
23-03-05 01:57:39 13.762 81.4 0.155 0 0 0.6 0
23-03-05 01:52:39 13.594 80 0.155 0 0 0.6 0
23-03-05 01:47:39 13.978 78.6 0.155 0 0 0.6 0
23-03-05 01:42:39 14.553 77.1 0.155 0 0 0.6 0
23-03-05 01:37:39 15.175 75.6 0.155 0 0 0.6 0
23-03-05 01:32:39 15.772 74.6 0.155 0 0 0.6 0
23-03-05 01:27:39 16.201 73.5 0.155 0 1.51 0.6 0
23-03-05 01:22:39 16.558 72.9 0.155 1.01 3.52 0.6 0
23-03-05 01:17:39 16.725 72.9 0.155 1.51 4.53 0.6 0
23-03-05 01:12:39 16.415 74.4 0.155 0.5 2.52 0.6 0
23-03-05 01:07:39 16.415 75.1 0.155 1.01 3.52 0.6 0
23-03-05 01:02:39 15.724 77.4 0.155 0.5 2.01 0.6 0
23-03-05 00:57:39 15.796 76.7 0.155 0.5 2.01 0.6 0
23-03-05 00:52:39 16.034 76 0.155 0.5 2.01 0.6 0
23-03-05 00:47:39 16.129 76 0.155 0.5 2.01 0.6 0
23-03-05 00:42:39 16.272 76.1 0.155 1.01 2.52 0.6 0
23-03-05 00:37:39 16.129 77.1 0.155 1.01 3.02 0.6 0
23-03-05 00:32:39 16.034 77.3 0.155 0.5 2.52 0.6 0
23-03-05 00:27:39 16.177 77.3 0.155 0.5 2.52 0.6 0
23-03-05 00:22:39 16.272 77 0.1557 1.01 3.02 0.6 0
23-03-05 00:17:39 16.201 77.4 0.155 0.5 3.02 0.6 0
23-03-05 00:12:39 16.153 77.3 0.155 0.5 3.02 0.6 0
23-03-05 00:07:39 16.344 76.4 0.155 1.01 3.02 0.6 0
23-03-05 00:02:39 16.511 76.7 0.1557 1.51 4.53 0.6 0
23-03-04 23:57:39 16.296 77.7 0.1557 1.01 2.52 0.6 0
23-03-04 23:52:39 16.106 77.8 0.1557 0.5 2.52 0.6 0
23-03-04 23:47:39 16.082 78 0.1557 1.01 2.01 0.6 0
23-03-04 23:42:39 16.32 77.5 0.1557 1.51 3.52 0.6 0
23-03-04 23:37:39 16.272 77.6 0.1564 1.51 3.52 0.6 0
23-03-04 23:32:39 16.225 77.6 0.1557 1.01 3.02 0.6 0
23-03-04 23:27:39 16.392 77 0.1557 1.01 2.52 0.6 0
23-03-04 23:22:39 16.463 76.9 0.1557 1.01 3.02 0.6 0
23-03-04 23:17:39 16.558 77 0.1557 1.01 3.52 0.6 0
23-03-04 23:12:39 16.392 76.4 0.1557 0.5 2.52 0.6 0
23-03-04 23:07:39 16.606 76.4 0.1557 0.5 2.52 0.6 0
23-03-04 23:02:39 16.773 75.8 0.155 1.01 2.52 0.6 0
23-03-04 22:57:39 16.654 76.5 0.155 1.01 3.02 0.6 0
23-03-04 22:52:39 16.606 76 0.155 0.5 2.52 0.6 0
23-03-04 22:47:39 16.82 75.4 0.1557 1.01 3.02 0.6 0
23-03-04 22:42:39 16.987 75.2 0.1557 1.01 3.02 0.6 0
23-03-04 22:37:39 17.058 74.8 0.155 1.01 3.02 0.6 0
23-03-04 22:32:39 17.058 74.6 0.1557 1.01 2.52 0.6 0
23-03-04 22:27:39 17.249 74.5 0.1564 1.01 3.02 0.6 0
23-03-04 22:22:39 17.201 74.1 0.1557 1.01 3.02 0.6 0
23-03-04 22:17:39 17.415 73.1 0.155 1.01 4.53 0.6 0
23-03-04 22:12:39 17.605 72.7 0.1564 1.51 3.52 0.6 0
23-03-04 22:07:39 17.653 72.7 0.155 1.51 3.52 0.6 0
23-03-04 22:02:39 17.724 72.4 0.155 2.01 4.03 0.6 0
23-03-04 21:57:39 17.772 72.2 0.155 1.51 4.03 0.6 0
23-03-04 21:52:39 17.843 71.8 0.155 1.51 3.52 0.6 0
23-03-04 21:47:39 17.891 72 0.155 1.51 4.53 0.6 0
23-03-04 21:42:39 17.867 72.1 0.155 1.01 2.52 0.6 0
23-03-04 21:37:39 17.867 72.3 0.155 1.01 3.02 0.6 0
23-03-04 21:32:39 18.01 71.8 0.155 1.51 4.03 0.6 0
23-03-04 21:27:39 18.033 71.8 0.155 1.51 4.03 0.6 0
23-03-04 21:22:39 18.2 70.9 0.155 2.01 5.03 0.6 0
23-03-04 21:17:39 18.033 71.7 0.155 1.51 4.03 0.6 0
23-03-04 21:12:39 17.772 71.3 0.155 0 2.01 0.6 0
23-03-04 21:07:39 18.033 69.8 0.155 0.5 3.02 0.6 0
23-03-04 21:02:39 17.748 70.7 0.1557 0 2.01 0.6 0
23-03-04 20:57:39 17.249 72.9 0.155 0 1.01 0.6 0
23-03-04 20:52:39 17.082 72.4 0.155 0 0 0.6 0
23-03-04 20:47:39 17.701 70.8 0.155 0 0 0.6 0
23-03-04 20:42:39 17.962 70.4 0.155 0 1.01 0.6 0
23-03-04 20:37:39 17.867 71 0.155 0 1.01 0.6 0
23-03-04 20:32:39 18.033 71.3 0.155 0 1.01 0.6 0
23-03-04 20:27:39 18.033 71 0.155 0 1.01 0.6 0
23-03-04 20:22:39 18.152 71.7 0.155 0 1.51 0.6 0
23-03-04 20:17:39 17.796 70.9 0.155 0 0 0.6 0
23-03-04 20:12:39 18.033 70.1 0.155 0 1.01 0.6 0
23-03-04 20:07:39 18.271 69.4 0.155 0 0.5 0.6 0
23-03-04 20:02:39 18.414 69 0.155 0 1.51 0.6 0
23-03-04 19:57:39 18.438 68.6 0.155 0 1.51 0.6 0
23-03-04 19:52:39 18.438 68.4 0.155 0.5 2.01 0.6 0
23-03-04 19:47:39 18.438 67.6 0.155 0.5 2.01 0.6 0
23-03-04 19:42:39 18.533 66.9 0.155 1.01 3.52 0.6 0
23-03-04 19:37:39 18.628 66.4 0.1557 1.51 4.03 0.6 0
23-03-04 19:32:39 18.723 65.6 0.155 2.01 5.03 0.6 0
23-03-04 19:27:39 18.842 64.6 0.1557 2.52 5.03 0.6 0
23-03-04 19:22:39 19.008 63.6 0.1557 3.02 7.05 0.6 0
23-03-04 19:17:39 19.151 62.6 0.155 2.52 5.03 0.6 0
23-03-04 19:12:39 19.365 61.5 0.1557 3.02 5.54 0.6 0
23-03-04 19:07:39 19.674 59.6 0.1557 4.03 8.56 0.6 0
23-03-04 19:02:39 20.436 52.8 0.155 2.52 5.54 0.6 0
23-03-04 18:57:39 20.96 47.2 0.1543 2.01 5.03 0.6 0
23-03-04 18:52:39 21.103 46.9 0.1564 1.01 5.03 0.6 0
23-03-04 18:47:39 21.294 46.6 0.155 1.51 4.03 0.6 0
23-03-04 18:42:39 21.318 46.5 0.1543 1.01 4.03 0.6 0
23-03-04 18:37:39 21.676 45.1 0.155 1.51 5.03 1.9 0
23-03-04 18:32:39 21.891 44.4 0.1543 2.52 5.03 3.1 0
23-03-04 18:27:39 22.106 43.8 0.155 2.01 4.53 5.6 0
23-03-04 18:22:39 22.321 43.8 0.155 2.01 4.53 10.6 0
23-03-04 18:17:39 22.465 44.4 0.155 1.01 3.02 23.1 0
23-03-04 18:12:39 22.896 42.9 0.155 2.01 5.03 38.1 0
23-03-04 18:07:39 22.968 43 0.155 2.01 4.53 44.4 0
23-03-04 18:02:39 23.328 43.2 0.155 2.01 5.03 55.6 0
23-03-04 17:57:39 23.785 41.6 0.1557 2.01 4.53 104.4 0
23-03-04 17:52:39 24.195 39.9 0.1564 2.52 5.03 126.9 0
23-03-04 17:47:39 24.46 39 0.1557 2.01 4.03 149.4 0
23-03-04 17:42:39 24.653 38.9 0.1557 1.51 4.53 170.6 0
23-03-04 17:37:39 24.653 38.3 0.1572 2.01 4.03 195.6 0
23-03-04 17:32:39 24.968 38.2 0.1564 2.01 4.53 226.9 0
23-03-04 17:27:39 24.798 38.6 0.1564 2.52 5.03 249.4 0
23-03-04 17:22:39 24.871 38.5 0.1564 2.01 4.53 265.6 0
23-03-04 17:17:39 25.186 37.8 0.1564 2.01 4.53 279.4 0
23-03-04 17:12:39 25.162 37.6 0.1557 2.52 5.54 304.4 0
23-03-04 17:07:39 25.914 36.6 0.1564 1.51 4.53 339.4 0
23-03-04 17:02:39 25.89 37.4 0.1564 2.01 5.54 371.9 0
23-03-04 16:57:39 25.744 36.7 0.1564 2.01 5.03 394.4 0
23-03-04 16:52:39 26.158 38.1 0.1564 2.01 4.53 434.4 0
23-03-04 16:47:39 26.012 36.9 0.1572 2.01 5.54 449.4 0
23-03-04 16:42:39 26.158 37.2 0.1572 1.51 5.03 494.4 0
23-03-04 16:37:39 26.524 37.1 0.1564 1.51 4.03 398.1 0
23-03-04 16:32:39 26.231 37.7 0.1564 2.01 4.53 520.6 0
23-03-04 16:27:39 26.134 38.9 0.1564 2.01 4.03 526.9 0
23-03-04 16:22:39 26.158 39.8 0.1564 2.01 4.53 516.9 0
23-03-04 16:17:39 25.55 39 0.1579 2.01 5.03 519.4 0
23-03-04 16:12:39 26.061 38.7 0.1572 2.01 4.53 541.9 0
23-03-04 16:07:39 25.987 38.3 0.1564 2.01 4.53 559.4 0
23-03-04 16:02:39 26.451 39.1 0.1564 1.51 5.03 581.9 0
23-03-04 15:57:39 26.256 38.3 0.1564 1.51 4.53 600.6 0
23-03-04 15:52:39 25.987 38.6 0.1572 2.01 5.03 619.4 0
23-03-04 15:47:39 25.963 39.2 0.1564 1.51 5.03 638.1 0
23-03-04 15:42:39 26.134 39.8 0.1557 1.51 6.04 654.4 0
23-03-04 15:37:39 25.793 39.8 0.1557 1.51 4.03 666.9 0
23-03-04 15:32:39 26.134 39.5 0.1564 2.01 3.52 690.6 0
23-03-04 15:27:39 26.573 39.8 0.1572 1.01 3.52 703.1 0
23-03-04 15:22:39 25.428 40.1 0.1564 1.51 4.03 723.1 0
23-03-04 15:17:39 25.963 38.8 0.1557 1.51 4.53 744.4 0
23-03-04 15:12:39 25.914 40.3 0.155 1.51 4.53 764.4 0
23-03-04 15:07:39 25.744 40.3 0.1564 1.01 6.04 219.4 0
23-03-04 15:02:39 26.598 40.5 0.1564 1.01 4.03 788.1 0
23-03-04 14:57:39 26.134 39.7 0.155 1.01 3.02 723.1 0
23-03-04 14:52:39 25.501 40.2 0.1564 2.01 5.03 845.6 0
23-03-04 14:47:39 26.28 40 0.1572 1.01 4.53 676.9 0
23-03-04 14:42:39 25.453 40.7 0.1557 1.51 4.03 909.4 0
23-03-04 14:37:39 25.234 42.2 0.1557 1.51 3.52 964.4 0
23-03-04 14:32:39 26.598 40.4 0.1564 1.01 5.03 785.6 0
23-03-04 14:27:39 25.914 41.3 0.1557 1.01 3.52